<?xml version="1.0" encoding="UTF-8" standalone="no" ?>
<gpx xmlns="http://www.topografix.com/GPX/1/1" xmlns:xsi="http://www.w3.org/2001/XMLSchema-instance" xsi:schemaLocation="http://www.topografix.com/GPX/1/1 http://www.topografix.com/GPX/1/1/gpx.xsd" version="1.1" creator="VisuGPX - https://www.visugpx.com">
  <metadata>
    <name>beaumont le roger </name>
    <desc><![CDATA[Petite sortie  sympa]]></desc>
  </metadata>
  <trk>
    <name><![CDATA[DDDDDDD-30 15:31:53]]></name>
    <trkseg>
      <trkpt lat="49.08467" lon="0.76117">
        <ele>89.06</ele>
        <time>2021-04-27T08:37:30Z</time>
      </trkpt>
      <trkpt lat="49.08467" lon="0.76117">
        <ele>90.02</ele>
        <time>2021-04-27T08:37:47Z</time>
      </trkpt>
      <trkpt lat="49.08467" lon="0.76118">
        <ele>88.58</ele>
        <time>2021-04-27T08:37:54Z</time>
      </trkpt>
      <trkpt lat="49.08462" lon="0.76121">
        <ele>88.58</ele>
        <time>2021-04-27T08:38:23Z</time>
      </trkpt>
      <trkpt lat="49.08462" lon="0.76121">
        <ele>87.62</ele>
        <time>2021-04-27T08:38:38Z</time>
      </trkpt>
      <trkpt lat="49.08463" lon="0.7612">
        <ele>89.06</ele>
        <time>2021-04-27T08:38:42Z</time>
      </trkpt>
      <trkpt lat="49.08464" lon="0.7612">
        <ele>85.69</ele>
        <time>2021-04-27T08:39:09Z</time>
      </trkpt>
      <trkpt lat="49.0849" lon="0.76094">
        <ele>149.14</ele>
        <time>2021-04-28T14:00:27Z</time>
      </trkpt>
      <trkpt lat="49.0849" lon="0.7609">
        <ele>145.3</ele>
        <time>2021-04-28T14:00:33Z</time>
      </trkpt>
      <trkpt lat="49.08495" lon="0.76151">
        <ele>69.35</ele>
        <time>2021-04-29T21:43:42Z</time>
      </trkpt>
      <trkpt lat="49.0847" lon="0.76113">
        <ele>69.35</ele>
        <time>2021-04-29T21:44:08Z</time>
      </trkpt>
      <trkpt lat="49.0847" lon="0.76112">
        <ele>69.35</ele>
        <time>2021-04-29T21:44:34Z</time>
      </trkpt>
      <trkpt lat="49.08469" lon="0.76113">
        <ele>72.72</ele>
        <time>2021-04-29T21:44:56Z</time>
      </trkpt>
      <trkpt lat="49.08469" lon="0.76113">
        <ele>72.72</ele>
        <time>2021-04-29T21:44:57Z</time>
      </trkpt>
      <trkpt lat="49.08469" lon="0.76113">
        <ele>76.08</ele>
        <time>2021-04-29T21:45:03Z</time>
      </trkpt>
      <trkpt lat="49.08468" lon="0.76113">
        <ele>77.52</ele>
        <time>2021-04-29T21:45:06Z</time>
      </trkpt>
      <trkpt lat="49.08473" lon="0.76115">
        <ele>80.41</ele>
        <time>2021-04-29T21:45:22Z</time>
      </trkpt>
      <trkpt lat="49.08473" lon="0.76114">
        <ele>82.81</ele>
        <time>2021-04-29T21:45:30Z</time>
      </trkpt>
      <trkpt lat="49.08471" lon="0.76114">
        <ele>86.18</ele>
        <time>2021-04-29T21:45:57Z</time>
      </trkpt>
      <trkpt lat="49.08471" lon="0.76114">
        <ele>86.18</ele>
        <time>2021-04-29T21:45:58Z</time>
      </trkpt>
      <trkpt lat="49.08471" lon="0.76114">
        <ele>84.73</ele>
        <time>2021-04-29T21:46:02Z</time>
      </trkpt>
      <trkpt lat="49.08468" lon="0.76117">
        <ele>84.73</ele>
        <time>2021-04-29T21:46:37Z</time>
      </trkpt>
      <trkpt lat="49.08469" lon="0.76116">
        <ele>84.25</ele>
        <time>2021-04-29T21:47:05Z</time>
      </trkpt>
      <trkpt lat="49.08469" lon="0.76115">
        <ele>84.73</ele>
        <time>2021-04-29T21:47:14Z</time>
      </trkpt>
      <trkpt lat="49.0847" lon="0.76115">
        <ele>84.73</ele>
        <time>2021-04-29T21:47:22Z</time>
      </trkpt>
      <trkpt lat="49.08469" lon="0.76114">
        <ele>86.18</ele>
        <time>2021-04-29T21:47:32Z</time>
      </trkpt>
      <trkpt lat="49.08469" lon="0.76114">
        <ele>84.73</ele>
        <time>2021-04-29T21:47:38Z</time>
      </trkpt>
      <trkpt lat="49.0847" lon="0.76116">
        <ele>84.73</ele>
        <time>2021-04-29T21:48:03Z</time>
      </trkpt>
      <trkpt lat="49.0847" lon="0.76116">
        <ele>83.29</ele>
        <time>2021-04-29T21:48:08Z</time>
      </trkpt>
      <trkpt lat="49.0847" lon="0.76116">
        <ele>86.18</ele>
        <time>2021-04-29T21:48:09Z</time>
      </trkpt>
      <trkpt lat="49.08469" lon="0.76116">
        <ele>86.18</ele>
        <time>2021-04-29T21:48:10Z</time>
      </trkpt>
      <trkpt lat="49.08469" lon="0.76117">
        <ele>85.21</ele>
        <time>2021-04-29T21:48:13Z</time>
      </trkpt>
      <trkpt lat="49.08469" lon="0.76116">
        <ele>85.69</ele>
        <time>2021-04-29T21:48:46Z</time>
      </trkpt>
      <trkpt lat="49.0847" lon="0.76115">
        <ele>85.69</ele>
        <time>2021-04-29T21:49:20Z</time>
      </trkpt>
      <trkpt lat="49.0847" lon="0.76115">
        <ele>84.25</ele>
        <time>2021-04-29T21:49:29Z</time>
      </trkpt>
      <trkpt lat="49.08466" lon="0.76112">
        <ele>84.73</ele>
        <time>2021-04-29T21:49:50Z</time>
      </trkpt>
      <trkpt lat="49.08468" lon="0.76117">
        <ele>84.73</ele>
        <time>2021-04-29T21:49:53Z</time>
      </trkpt>
      <trkpt lat="49.08457" lon="0.76147">
        <ele>84.73</ele>
        <time>2021-04-29T21:51:33Z</time>
      </trkpt>
      <trkpt lat="49.08462" lon="0.76142">
        <ele>82.33</ele>
        <time>2021-04-29T21:52:00Z</time>
      </trkpt>
      <trkpt lat="49.08462" lon="0.76142">
        <ele>86.18</ele>
        <time>2021-04-29T21:52:01Z</time>
      </trkpt>
      <trkpt lat="49.08459" lon="0.76137">
        <ele>84.25</ele>
        <time>2021-04-29T21:52:27Z</time>
      </trkpt>
      <trkpt lat="49.08458" lon="0.76127">
        <ele>84.25</ele>
        <time>2021-04-29T21:52:41Z</time>
      </trkpt>
      <trkpt lat="49.08454" lon="0.7612">
        <ele>85.69</ele>
        <time>2021-04-29T21:52:47Z</time>
      </trkpt>
      <trkpt lat="49.08457" lon="0.76119">
        <ele>84.25</ele>
        <time>2021-04-29T21:52:50Z</time>
      </trkpt>
      <trkpt lat="49.0846" lon="0.76119">
        <ele>85.21</ele>
        <time>2021-04-29T21:52:58Z</time>
      </trkpt>
      <trkpt lat="49.08467" lon="0.76117">
        <ele>84.25</ele>
        <time>2021-04-29T21:53:25Z</time>
      </trkpt>
      <trkpt lat="49.08471" lon="0.76117">
        <ele>84.73</ele>
        <time>2021-04-29T21:53:51Z</time>
      </trkpt>
      <trkpt lat="49.08467" lon="0.76111">
        <ele>84.73</ele>
        <time>2021-04-29T21:54:18Z</time>
      </trkpt>
      <trkpt lat="49.0847" lon="0.76112">
        <ele>84.73</ele>
        <time>2021-04-29T21:54:47Z</time>
      </trkpt>
      <trkpt lat="49.08473" lon="0.76115">
        <ele>84.73</ele>
        <time>2021-04-29T21:55:15Z</time>
      </trkpt>
      <trkpt lat="49.08467" lon="0.76114">
        <ele>83.77</ele>
        <time>2021-04-29T21:55:48Z</time>
      </trkpt>
      <trkpt lat="49.08472" lon="0.76113">
        <ele>85.21</ele>
        <time>2021-04-29T21:56:10Z</time>
      </trkpt>
      <trkpt lat="49.08471" lon="0.76111">
        <ele>84.25</ele>
        <time>2021-04-29T22:03:05Z</time>
      </trkpt>
      <trkpt lat="49.08471" lon="0.76111">
        <ele>84.25</ele>
        <time>2021-04-29T22:03:06Z</time>
      </trkpt>
      <trkpt lat="49.08471" lon="0.76113">
        <ele>82.81</ele>
        <time>2021-04-29T22:03:33Z</time>
      </trkpt>
      <trkpt lat="49.08475" lon="0.76117">
        <ele>83.29</ele>
        <time>2021-04-29T22:03:55Z</time>
      </trkpt>
      <trkpt lat="49.08475" lon="0.76118">
        <ele>79.45</ele>
        <time>2021-04-29T22:04:02Z</time>
      </trkpt>
      <trkpt lat="49.08475" lon="0.76118">
        <ele>80.41</ele>
        <time>2021-04-29T22:04:03Z</time>
      </trkpt>
      <trkpt lat="49.08474" lon="0.76119">
        <ele>76.56</ele>
        <time>2021-04-29T22:04:09Z</time>
      </trkpt>
      <trkpt lat="49.08474" lon="0.76119">
        <ele>76.56</ele>
        <time>2021-04-29T22:04:10Z</time>
      </trkpt>
      <trkpt lat="49.08474" lon="0.76121">
        <ele>75.12</ele>
        <time>2021-04-29T22:04:19Z</time>
      </trkpt>
      <trkpt lat="49.08473" lon="0.76125">
        <ele>70.79</ele>
        <time>2021-04-29T22:04:28Z</time>
      </trkpt>
      <trkpt lat="49.08473" lon="0.76125">
        <ele>70.79</ele>
        <time>2021-04-29T22:04:29Z</time>
      </trkpt>
      <trkpt lat="49.08472" lon="0.76125">
        <ele>73.2</ele>
        <time>2021-04-29T22:04:31Z</time>
      </trkpt>
      <trkpt lat="49.08472" lon="0.76126">
        <ele>71.76</ele>
        <time>2021-04-29T22:04:33Z</time>
      </trkpt>
      <trkpt lat="49.08471" lon="0.76119">
        <ele>68.87</ele>
        <time>2021-04-29T22:05:01Z</time>
      </trkpt>
      <trkpt lat="49.08471" lon="0.76118">
        <ele>70.31</ele>
        <time>2021-04-29T22:05:03Z</time>
      </trkpt>
      <trkpt lat="49.08475" lon="0.76115">
        <ele>70.31</ele>
        <time>2021-04-29T22:05:32Z</time>
      </trkpt>
      <trkpt lat="49.08475" lon="0.76112">
        <ele>70.79</ele>
        <time>2021-04-29T22:05:57Z</time>
      </trkpt>
      <trkpt lat="49.08474" lon="0.76112">
        <ele>70.79</ele>
        <time>2021-04-29T22:06:22Z</time>
      </trkpt>
      <trkpt lat="49.08468" lon="0.76114">
        <ele>71.27</ele>
        <time>2021-04-29T22:06:51Z</time>
      </trkpt>
      <trkpt lat="49.08471" lon="0.76114">
        <ele>71.76</ele>
        <time>2021-04-29T22:07:25Z</time>
      </trkpt>
      <trkpt lat="49.0847" lon="0.76114">
        <ele>70.31</ele>
        <time>2021-04-29T22:07:34Z</time>
      </trkpt>
      <trkpt lat="49.08471" lon="0.76111">
        <ele>71.76</ele>
        <time>2021-04-29T22:07:43Z</time>
      </trkpt>
      <trkpt lat="49.08471" lon="0.76111">
        <ele>71.76</ele>
        <time>2021-04-29T22:07:49Z</time>
      </trkpt>
      <trkpt lat="49.08463" lon="0.76115">
        <ele>69.83</ele>
        <time>2021-04-29T22:14:36Z</time>
      </trkpt>
      <trkpt lat="49.08462" lon="0.76115">
        <ele>69.83</ele>
        <time>2021-04-29T22:14:37Z</time>
      </trkpt>
      <trkpt lat="49.08467" lon="0.76114">
        <ele>69.83</ele>
        <time>2021-04-29T22:15:05Z</time>
      </trkpt>
      <trkpt lat="49.0847" lon="0.76105">
        <ele>68.87</ele>
        <time>2021-04-29T22:15:23Z</time>
      </trkpt>
      <trkpt lat="49.08468" lon="0.76105">
        <ele>68.87</ele>
        <time>2021-04-29T22:15:34Z</time>
      </trkpt>
      <trkpt lat="49.08467" lon="0.76121">
        <ele>69.35</ele>
        <time>2021-04-29T22:22:33Z</time>
      </trkpt>
      <trkpt lat="49.0847" lon="0.76116">
        <ele>67.43</ele>
        <time>2021-04-29T22:22:53Z</time>
      </trkpt>
      <trkpt lat="49.08488" lon="0.76154">
        <ele>63.1</ele>
        <time>2021-04-30T09:20:53Z</time>
      </trkpt>
      <trkpt lat="49.08487" lon="0.76152">
        <ele>57.34</ele>
        <time>2021-04-30T09:20:55Z</time>
      </trkpt>
      <trkpt lat="49.08718" lon="0.76292">
        <ele>59.26</ele>
        <time>2021-04-30T12:03:02Z</time>
      </trkpt>
      <trkpt lat="49.08722" lon="0.76298">
        <ele>59.74</ele>
        <time>2021-04-30T12:03:03Z</time>
      </trkpt>
      <trkpt lat="49.08737" lon="0.76319">
        <ele>63.1</ele>
        <time>2021-04-30T12:03:08Z</time>
      </trkpt>
      <trkpt lat="49.08745" lon="0.76341">
        <ele>66.95</ele>
        <time>2021-04-30T12:03:13Z</time>
      </trkpt>
      <trkpt lat="49.08749" lon="0.76348">
        <ele>69.35</ele>
        <time>2021-04-30T12:03:16Z</time>
      </trkpt>
      <trkpt lat="49.08751" lon="0.76347">
        <ele>69.83</ele>
        <time>2021-04-30T12:03:17Z</time>
      </trkpt>
      <trkpt lat="49.08753" lon="0.76345">
        <ele>70.31</ele>
        <time>2021-04-30T12:03:18Z</time>
      </trkpt>
      <trkpt lat="49.08754" lon="0.76343">
        <ele>71.27</ele>
        <time>2021-04-30T12:03:19Z</time>
      </trkpt>
      <trkpt lat="49.08754" lon="0.7634">
        <ele>71.27</ele>
        <time>2021-04-30T12:03:20Z</time>
      </trkpt>
      <trkpt lat="49.08754" lon="0.76337">
        <ele>71.76</ele>
        <time>2021-04-30T12:03:21Z</time>
      </trkpt>
      <trkpt lat="49.08754" lon="0.76335">
        <ele>74.16</ele>
        <time>2021-04-30T12:03:27Z</time>
      </trkpt>
      <trkpt lat="49.08754" lon="0.76336">
        <ele>77.52</ele>
        <time>2021-04-30T12:03:36Z</time>
      </trkpt>
      <trkpt lat="49.08754" lon="0.76336">
        <ele>80.89</ele>
        <time>2021-04-30T12:03:43Z</time>
      </trkpt>
      <trkpt lat="49.08755" lon="0.76336">
        <ele>80.89</ele>
        <time>2021-04-30T12:03:44Z</time>
      </trkpt>
      <trkpt lat="49.08755" lon="0.76336">
        <ele>82.81</ele>
        <time>2021-04-30T12:03:57Z</time>
      </trkpt>
      <trkpt lat="49.08754" lon="0.76334">
        <ele>83.29</ele>
        <time>2021-04-30T12:04:02Z</time>
      </trkpt>
      <trkpt lat="49.08753" lon="0.76331">
        <ele>83.29</ele>
        <time>2021-04-30T12:04:03Z</time>
      </trkpt>
      <trkpt lat="49.08723" lon="0.76296">
        <ele>82.81</ele>
        <time>2021-04-30T12:04:14Z</time>
      </trkpt>
      <trkpt lat="49.08715" lon="0.76284">
        <ele>82.81</ele>
        <time>2021-04-30T12:04:17Z</time>
      </trkpt>
      <trkpt lat="49.0866" lon="0.7619">
        <ele>83.29</ele>
        <time>2021-04-30T12:04:34Z</time>
      </trkpt>
      <trkpt lat="49.08581" lon="0.76074">
        <ele>83.29</ele>
        <time>2021-04-30T12:04:55Z</time>
      </trkpt>
      <trkpt lat="49.08538" lon="0.76004">
        <ele>85.69</ele>
        <time>2021-04-30T12:05:10Z</time>
      </trkpt>
      <trkpt lat="49.08526" lon="0.75982">
        <ele>86.18</ele>
        <time>2021-04-30T12:05:16Z</time>
      </trkpt>
      <trkpt lat="49.08523" lon="0.75982">
        <ele>86.18</ele>
        <time>2021-04-30T12:05:17Z</time>
      </trkpt>
      <trkpt lat="49.0852" lon="0.75983">
        <ele>86.18</ele>
        <time>2021-04-30T12:05:18Z</time>
      </trkpt>
      <trkpt lat="49.08517" lon="0.75987">
        <ele>86.18</ele>
        <time>2021-04-30T12:05:19Z</time>
      </trkpt>
      <trkpt lat="49.08516" lon="0.7599">
        <ele>86.18</ele>
        <time>2021-04-30T12:05:20Z</time>
      </trkpt>
      <trkpt lat="49.08514" lon="0.75995">
        <ele>86.18</ele>
        <time>2021-04-30T12:05:21Z</time>
      </trkpt>
      <trkpt lat="49.08513" lon="0.75999">
        <ele>86.18</ele>
        <time>2021-04-30T12:05:22Z</time>
      </trkpt>
      <trkpt lat="49.08511" lon="0.76004">
        <ele>86.66</ele>
        <time>2021-04-30T12:05:23Z</time>
      </trkpt>
      <trkpt lat="49.08489" lon="0.761">
        <ele>87.62</ele>
        <time>2021-04-30T12:05:41Z</time>
      </trkpt>
      <trkpt lat="49.08484" lon="0.76117">
        <ele>87.62</ele>
        <time>2021-04-30T12:05:44Z</time>
      </trkpt>
      <trkpt lat="49.08476" lon="0.76145">
        <ele>88.1</ele>
        <time>2021-04-30T12:05:49Z</time>
      </trkpt>
      <trkpt lat="49.08473" lon="0.76158">
        <ele>88.1</ele>
        <time>2021-04-30T12:05:51Z</time>
      </trkpt>
      <trkpt lat="49.0845" lon="0.76239">
        <ele>87.62</ele>
        <time>2021-04-30T12:06:06Z</time>
      </trkpt>
      <trkpt lat="49.08449" lon="0.76241">
        <ele>87.62</ele>
        <time>2021-04-30T12:06:07Z</time>
      </trkpt>
      <trkpt lat="49.08447" lon="0.76241">
        <ele>87.62</ele>
        <time>2021-04-30T12:06:08Z</time>
      </trkpt>
      <trkpt lat="49.08445" lon="0.76239">
        <ele>87.62</ele>
        <time>2021-04-30T12:06:09Z</time>
      </trkpt>
      <trkpt lat="49.08443" lon="0.76237">
        <ele>87.62</ele>
        <time>2021-04-30T12:06:10Z</time>
      </trkpt>
      <trkpt lat="49.08441" lon="0.76235">
        <ele>87.62</ele>
        <time>2021-04-30T12:06:11Z</time>
      </trkpt>
      <trkpt lat="49.08433" lon="0.76221">
        <ele>87.62</ele>
        <time>2021-04-30T12:06:17Z</time>
      </trkpt>
      <trkpt lat="49.08433" lon="0.76224">
        <ele>88.1</ele>
        <time>2021-04-30T12:06:20Z</time>
      </trkpt>
      <trkpt lat="49.08446" lon="0.76247">
        <ele>88.1</ele>
        <time>2021-04-30T12:06:29Z</time>
      </trkpt>
      <trkpt lat="49.08445" lon="0.76252">
        <ele>88.1</ele>
        <time>2021-04-30T12:06:30Z</time>
      </trkpt>
      <trkpt lat="49.08444" lon="0.76255">
        <ele>88.1</ele>
        <time>2021-04-30T12:06:31Z</time>
      </trkpt>
      <trkpt lat="49.08443" lon="0.76259">
        <ele>88.1</ele>
        <time>2021-04-30T12:06:32Z</time>
      </trkpt>
      <trkpt lat="49.08441" lon="0.76264">
        <ele>88.1</ele>
        <time>2021-04-30T12:06:33Z</time>
      </trkpt>
      <trkpt lat="49.0844" lon="0.76268">
        <ele>88.1</ele>
        <time>2021-04-30T12:06:34Z</time>
      </trkpt>
      <trkpt lat="49.08418" lon="0.76342">
        <ele>88.1</ele>
        <time>2021-04-30T12:06:49Z</time>
      </trkpt>
      <trkpt lat="49.08411" lon="0.7636">
        <ele>88.1</ele>
        <time>2021-04-30T12:07:00Z</time>
      </trkpt>
      <trkpt lat="49.08397" lon="0.764">
        <ele>88.1</ele>
        <time>2021-04-30T12:07:13Z</time>
      </trkpt>
      <trkpt lat="49.08377" lon="0.76452">
        <ele>88.1</ele>
        <time>2021-04-30T12:07:22Z</time>
      </trkpt>
      <trkpt lat="49.08373" lon="0.76456">
        <ele>88.1</ele>
        <time>2021-04-30T12:07:23Z</time>
      </trkpt>
      <trkpt lat="49.08369" lon="0.76458">
        <ele>88.1</ele>
        <time>2021-04-30T12:07:24Z</time>
      </trkpt>
      <trkpt lat="49.08365" lon="0.76458">
        <ele>88.1</ele>
        <time>2021-04-30T12:07:25Z</time>
      </trkpt>
      <trkpt lat="49.08361" lon="0.76456">
        <ele>88.1</ele>
        <time>2021-04-30T12:07:26Z</time>
      </trkpt>
      <trkpt lat="49.08356" lon="0.76453">
        <ele>88.1</ele>
        <time>2021-04-30T12:07:27Z</time>
      </trkpt>
      <trkpt lat="49.0835" lon="0.7645">
        <ele>88.1</ele>
        <time>2021-04-30T12:07:28Z</time>
      </trkpt>
      <trkpt lat="49.08345" lon="0.76449">
        <ele>88.1</ele>
        <time>2021-04-30T12:07:29Z</time>
      </trkpt>
      <trkpt lat="49.08341" lon="0.76449">
        <ele>88.1</ele>
        <time>2021-04-30T12:07:30Z</time>
      </trkpt>
      <trkpt lat="49.08336" lon="0.7645">
        <ele>88.1</ele>
        <time>2021-04-30T12:07:31Z</time>
      </trkpt>
      <trkpt lat="49.08331" lon="0.76452">
        <ele>88.1</ele>
        <time>2021-04-30T12:07:32Z</time>
      </trkpt>
      <trkpt lat="49.08259" lon="0.76486">
        <ele>88.1</ele>
        <time>2021-04-30T12:07:46Z</time>
      </trkpt>
      <trkpt lat="49.08254" lon="0.7649">
        <ele>88.1</ele>
        <time>2021-04-30T12:07:47Z</time>
      </trkpt>
      <trkpt lat="49.08158" lon="0.76554">
        <ele>89.06</ele>
        <time>2021-04-30T12:08:06Z</time>
      </trkpt>
      <trkpt lat="49.0812" lon="0.76571">
        <ele>89.06</ele>
        <time>2021-04-30T12:08:13Z</time>
      </trkpt>
      <trkpt lat="49.08029" lon="0.76618">
        <ele>90.02</ele>
        <time>2021-04-30T12:08:31Z</time>
      </trkpt>
      <trkpt lat="49.07979" lon="0.76647">
        <ele>90.02</ele>
        <time>2021-04-30T12:08:43Z</time>
      </trkpt>
      <trkpt lat="49.07961" lon="0.76666">
        <ele>89.06</ele>
        <time>2021-04-30T12:08:48Z</time>
      </trkpt>
      <trkpt lat="49.07956" lon="0.76668">
        <ele>89.06</ele>
        <time>2021-04-30T12:08:49Z</time>
      </trkpt>
      <trkpt lat="49.07944" lon="0.7667">
        <ele>89.06</ele>
        <time>2021-04-30T12:08:52Z</time>
      </trkpt>
      <trkpt lat="49.07939" lon="0.76675">
        <ele>89.06</ele>
        <time>2021-04-30T12:08:53Z</time>
      </trkpt>
      <trkpt lat="49.07936" lon="0.7668">
        <ele>89.06</ele>
        <time>2021-04-30T12:08:54Z</time>
      </trkpt>
      <trkpt lat="49.07934" lon="0.76686">
        <ele>89.06</ele>
        <time>2021-04-30T12:08:55Z</time>
      </trkpt>
      <trkpt lat="49.07935" lon="0.76696">
        <ele>89.06</ele>
        <time>2021-04-30T12:08:56Z</time>
      </trkpt>
      <trkpt lat="49.07936" lon="0.76702">
        <ele>89.06</ele>
        <time>2021-04-30T12:08:57Z</time>
      </trkpt>
      <trkpt lat="49.07937" lon="0.76709">
        <ele>89.06</ele>
        <time>2021-04-30T12:08:58Z</time>
      </trkpt>
      <trkpt lat="49.07938" lon="0.76716">
        <ele>89.06</ele>
        <time>2021-04-30T12:08:59Z</time>
      </trkpt>
      <trkpt lat="49.07939" lon="0.76724">
        <ele>89.06</ele>
        <time>2021-04-30T12:09:00Z</time>
      </trkpt>
      <trkpt lat="49.07967" lon="0.76857">
        <ele>88.1</ele>
        <time>2021-04-30T12:09:16Z</time>
      </trkpt>
      <trkpt lat="49.08013" lon="0.77048">
        <ele>88.1</ele>
        <time>2021-04-30T12:09:39Z</time>
      </trkpt>
      <trkpt lat="49.08047" lon="0.77179">
        <ele>87.62</ele>
        <time>2021-04-30T12:09:53Z</time>
      </trkpt>
      <trkpt lat="49.08049" lon="0.77189">
        <ele>87.62</ele>
        <time>2021-04-30T12:09:54Z</time>
      </trkpt>
      <trkpt lat="49.0806" lon="0.77308">
        <ele>88.1</ele>
        <time>2021-04-30T12:10:07Z</time>
      </trkpt>
      <trkpt lat="49.08074" lon="0.77448">
        <ele>89.06</ele>
        <time>2021-04-30T12:10:24Z</time>
      </trkpt>
      <trkpt lat="49.0807" lon="0.77519">
        <ele>87.62</ele>
        <time>2021-04-30T12:10:32Z</time>
      </trkpt>
      <trkpt lat="49.08062" lon="0.7757">
        <ele>87.14</ele>
        <time>2021-04-30T12:10:38Z</time>
      </trkpt>
      <trkpt lat="49.08032" lon="0.77668">
        <ele>86.66</ele>
        <time>2021-04-30T12:10:52Z</time>
      </trkpt>
      <trkpt lat="49.08012" lon="0.77721">
        <ele>88.1</ele>
        <time>2021-04-30T12:11:00Z</time>
      </trkpt>
      <trkpt lat="49.08009" lon="0.77728">
        <ele>88.1</ele>
        <time>2021-04-30T12:11:01Z</time>
      </trkpt>
      <trkpt lat="49.08005" lon="0.77734">
        <ele>88.1</ele>
        <time>2021-04-30T12:11:02Z</time>
      </trkpt>
      <trkpt lat="49.08002" lon="0.7774">
        <ele>88.1</ele>
        <time>2021-04-30T12:11:03Z</time>
      </trkpt>
      <trkpt lat="49.07998" lon="0.77746">
        <ele>88.1</ele>
        <time>2021-04-30T12:11:04Z</time>
      </trkpt>
      <trkpt lat="49.07995" lon="0.77753">
        <ele>88.1</ele>
        <time>2021-04-30T12:11:05Z</time>
      </trkpt>
      <trkpt lat="49.07992" lon="0.7776">
        <ele>88.1</ele>
        <time>2021-04-30T12:11:06Z</time>
      </trkpt>
      <trkpt lat="49.07952" lon="0.77865">
        <ele>89.54</ele>
        <time>2021-04-30T12:11:22Z</time>
      </trkpt>
      <trkpt lat="49.07907" lon="0.77985">
        <ele>90.5</ele>
        <time>2021-04-30T12:11:40Z</time>
      </trkpt>
      <trkpt lat="49.0787" lon="0.78091">
        <ele>90.5</ele>
        <time>2021-04-30T12:11:55Z</time>
      </trkpt>
      <trkpt lat="49.0783" lon="0.78198">
        <ele>91.94</ele>
        <time>2021-04-30T12:12:11Z</time>
      </trkpt>
      <trkpt lat="49.07828" lon="0.78203">
        <ele>91.46</ele>
        <time>2021-04-30T12:12:12Z</time>
      </trkpt>
      <trkpt lat="49.07826" lon="0.78208">
        <ele>91.46</ele>
        <time>2021-04-30T12:12:13Z</time>
      </trkpt>
      <trkpt lat="49.07811" lon="0.78289">
        <ele>94.35</ele>
        <time>2021-04-30T12:12:29Z</time>
      </trkpt>
      <trkpt lat="49.07812" lon="0.78359">
        <ele>96.27</ele>
        <time>2021-04-30T12:12:45Z</time>
      </trkpt>
      <trkpt lat="49.07796" lon="0.78398">
        <ele>99.63</ele>
        <time>2021-04-30T12:12:59Z</time>
      </trkpt>
      <trkpt lat="49.07784" lon="0.78438">
        <ele>102.52</ele>
        <time>2021-04-30T12:13:14Z</time>
      </trkpt>
      <trkpt lat="49.07792" lon="0.78472">
        <ele>104.92</ele>
        <time>2021-04-30T12:13:28Z</time>
      </trkpt>
      <trkpt lat="49.07803" lon="0.78499">
        <ele>107.81</ele>
        <time>2021-04-30T12:13:42Z</time>
      </trkpt>
      <trkpt lat="49.0781" lon="0.7854">
        <ele>111.17</ele>
        <time>2021-04-30T12:14:00Z</time>
      </trkpt>
      <trkpt lat="49.07814" lon="0.78587">
        <ele>113.57</ele>
        <time>2021-04-30T12:14:20Z</time>
      </trkpt>
      <trkpt lat="49.07816" lon="0.78616">
        <ele>115.5</ele>
        <time>2021-04-30T12:14:34Z</time>
      </trkpt>
      <trkpt lat="49.07816" lon="0.78618">
        <ele>115.98</ele>
        <time>2021-04-30T12:14:35Z</time>
      </trkpt>
      <trkpt lat="49.07816" lon="0.7862">
        <ele>115.98</ele>
        <time>2021-04-30T12:14:36Z</time>
      </trkpt>
      <trkpt lat="49.07816" lon="0.78621">
        <ele>116.46</ele>
        <time>2021-04-30T12:14:37Z</time>
      </trkpt>
      <trkpt lat="49.07816" lon="0.78623">
        <ele>116.46</ele>
        <time>2021-04-30T12:14:38Z</time>
      </trkpt>
      <trkpt lat="49.07818" lon="0.78657">
        <ele>118.86</ele>
        <time>2021-04-30T12:14:53Z</time>
      </trkpt>
      <trkpt lat="49.07819" lon="0.78693">
        <ele>121.74</ele>
        <time>2021-04-30T12:15:10Z</time>
      </trkpt>
      <trkpt lat="49.07817" lon="0.78724">
        <ele>125.11</ele>
        <time>2021-04-30T12:15:26Z</time>
      </trkpt>
      <trkpt lat="49.07817" lon="0.78735">
        <ele>126.55</ele>
        <time>2021-04-30T12:15:43Z</time>
      </trkpt>
      <trkpt lat="49.07817" lon="0.78737">
        <ele>126.55</ele>
        <time>2021-04-30T12:16:00Z</time>
      </trkpt>
      <trkpt lat="49.07818" lon="0.78741">
        <ele>126.55</ele>
        <time>2021-04-30T12:16:03Z</time>
      </trkpt>
      <trkpt lat="49.07818" lon="0.78743">
        <ele>126.55</ele>
        <time>2021-04-30T12:16:04Z</time>
      </trkpt>
      <trkpt lat="49.07817" lon="0.78745">
        <ele>126.55</ele>
        <time>2021-04-30T12:16:05Z</time>
      </trkpt>
      <trkpt lat="49.07817" lon="0.78747">
        <ele>126.55</ele>
        <time>2021-04-30T12:16:06Z</time>
      </trkpt>
      <trkpt lat="49.07817" lon="0.78749">
        <ele>127.51</ele>
        <time>2021-04-30T12:16:07Z</time>
      </trkpt>
      <trkpt lat="49.07817" lon="0.78751">
        <ele>127.51</ele>
        <time>2021-04-30T12:16:08Z</time>
      </trkpt>
      <trkpt lat="49.07817" lon="0.78752">
        <ele>127.99</ele>
        <time>2021-04-30T12:16:09Z</time>
      </trkpt>
      <trkpt lat="49.07817" lon="0.78763">
        <ele>128.95</ele>
        <time>2021-04-30T12:16:15Z</time>
      </trkpt>
      <trkpt lat="49.07815" lon="0.7879">
        <ele>131.84</ele>
        <time>2021-04-30T12:16:30Z</time>
      </trkpt>
      <trkpt lat="49.07814" lon="0.78797">
        <ele>132.8</ele>
        <time>2021-04-30T12:16:33Z</time>
      </trkpt>
      <trkpt lat="49.07813" lon="0.78798">
        <ele>132.8</ele>
        <time>2021-04-30T12:16:34Z</time>
      </trkpt>
      <trkpt lat="49.07813" lon="0.788">
        <ele>133.28</ele>
        <time>2021-04-30T12:16:35Z</time>
      </trkpt>
      <trkpt lat="49.07812" lon="0.78802">
        <ele>133.28</ele>
        <time>2021-04-30T12:16:36Z</time>
      </trkpt>
      <trkpt lat="49.07812" lon="0.78804">
        <ele>133.28</ele>
        <time>2021-04-30T12:16:37Z</time>
      </trkpt>
      <trkpt lat="49.07811" lon="0.78806">
        <ele>133.76</ele>
        <time>2021-04-30T12:16:38Z</time>
      </trkpt>
      <trkpt lat="49.07811" lon="0.78808">
        <ele>133.76</ele>
        <time>2021-04-30T12:16:39Z</time>
      </trkpt>
      <trkpt lat="49.07811" lon="0.78809">
        <ele>133.76</ele>
        <time>2021-04-30T12:16:40Z</time>
      </trkpt>
      <trkpt lat="49.0781" lon="0.78811">
        <ele>134.24</ele>
        <time>2021-04-30T12:16:41Z</time>
      </trkpt>
      <trkpt lat="49.0781" lon="0.78813">
        <ele>134.24</ele>
        <time>2021-04-30T12:16:42Z</time>
      </trkpt>
      <trkpt lat="49.07809" lon="0.78815">
        <ele>134.72</ele>
        <time>2021-04-30T12:16:43Z</time>
      </trkpt>
      <trkpt lat="49.07809" lon="0.78817">
        <ele>134.72</ele>
        <time>2021-04-30T12:16:44Z</time>
      </trkpt>
      <trkpt lat="49.07802" lon="0.78852">
        <ele>137.61</ele>
        <time>2021-04-30T12:17:00Z</time>
      </trkpt>
      <trkpt lat="49.07797" lon="0.78886">
        <ele>139.05</ele>
        <time>2021-04-30T12:17:14Z</time>
      </trkpt>
      <trkpt lat="49.07789" lon="0.78926">
        <ele>141.93</ele>
        <time>2021-04-30T12:17:31Z</time>
      </trkpt>
      <trkpt lat="49.07782" lon="0.78965">
        <ele>143.85</ele>
        <time>2021-04-30T12:17:47Z</time>
      </trkpt>
      <trkpt lat="49.07775" lon="0.79002">
        <ele>145.78</ele>
        <time>2021-04-30T12:18:03Z</time>
      </trkpt>
      <trkpt lat="49.07768" lon="0.79042">
        <ele>147.22</ele>
        <time>2021-04-30T12:18:18Z</time>
      </trkpt>
      <trkpt lat="49.07764" lon="0.79086">
        <ele>148.66</ele>
        <time>2021-04-30T12:18:33Z</time>
      </trkpt>
      <trkpt lat="49.07774" lon="0.7914">
        <ele>150.1</ele>
        <time>2021-04-30T12:18:50Z</time>
      </trkpt>
      <trkpt lat="49.07788" lon="0.79221">
        <ele>150.1</ele>
        <time>2021-04-30T12:19:08Z</time>
      </trkpt>
      <trkpt lat="49.07787" lon="0.79276">
        <ele>150.1</ele>
        <time>2021-04-30T12:19:18Z</time>
      </trkpt>
      <trkpt lat="49.07785" lon="0.79309">
        <ele>150.1</ele>
        <time>2021-04-30T12:19:26Z</time>
      </trkpt>
      <trkpt lat="49.07783" lon="0.79312">
        <ele>150.1</ele>
        <time>2021-04-30T12:19:27Z</time>
      </trkpt>
      <trkpt lat="49.07782" lon="0.79314">
        <ele>150.1</ele>
        <time>2021-04-30T12:19:28Z</time>
      </trkpt>
      <trkpt lat="49.0775" lon="0.79337">
        <ele>150.1</ele>
        <time>2021-04-30T12:19:44Z</time>
      </trkpt>
      <trkpt lat="49.07735" lon="0.79344">
        <ele>148.66</ele>
        <time>2021-04-30T12:19:48Z</time>
      </trkpt>
      <trkpt lat="49.07731" lon="0.79346">
        <ele>148.66</ele>
        <time>2021-04-30T12:19:49Z</time>
      </trkpt>
      <trkpt lat="49.07648" lon="0.79356">
        <ele>148.18</ele>
        <time>2021-04-30T12:20:07Z</time>
      </trkpt>
      <trkpt lat="49.07643" lon="0.79355">
        <ele>148.18</ele>
        <time>2021-04-30T12:20:08Z</time>
      </trkpt>
      <trkpt lat="49.07638" lon="0.79354">
        <ele>148.18</ele>
        <time>2021-04-30T12:20:09Z</time>
      </trkpt>
      <trkpt lat="49.07634" lon="0.79352">
        <ele>148.18</ele>
        <time>2021-04-30T12:20:10Z</time>
      </trkpt>
      <trkpt lat="49.07629" lon="0.7935">
        <ele>148.18</ele>
        <time>2021-04-30T12:20:11Z</time>
      </trkpt>
      <trkpt lat="49.07624" lon="0.79349">
        <ele>148.18</ele>
        <time>2021-04-30T12:20:12Z</time>
      </trkpt>
      <trkpt lat="49.07575" lon="0.79327">
        <ele>148.18</ele>
        <time>2021-04-30T12:20:26Z</time>
      </trkpt>
      <trkpt lat="49.07571" lon="0.79325">
        <ele>148.18</ele>
        <time>2021-04-30T12:20:27Z</time>
      </trkpt>
      <trkpt lat="49.07501" lon="0.79288">
        <ele>145.78</ele>
        <time>2021-04-30T12:20:41Z</time>
      </trkpt>
      <trkpt lat="49.0748" lon="0.79277">
        <ele>144.34</ele>
        <time>2021-04-30T12:20:45Z</time>
      </trkpt>
      <trkpt lat="49.07448" lon="0.7926">
        <ele>141.93</ele>
        <time>2021-04-30T12:20:55Z</time>
      </trkpt>
      <trkpt lat="49.07425" lon="0.79241">
        <ele>140.01</ele>
        <time>2021-04-30T12:21:02Z</time>
      </trkpt>
      <trkpt lat="49.07416" lon="0.79234">
        <ele>139.05</ele>
        <time>2021-04-30T12:21:04Z</time>
      </trkpt>
      <trkpt lat="49.07411" lon="0.79231">
        <ele>139.05</ele>
        <time>2021-04-30T12:21:05Z</time>
      </trkpt>
      <trkpt lat="49.07407" lon="0.79228">
        <ele>138.09</ele>
        <time>2021-04-30T12:21:06Z</time>
      </trkpt>
      <trkpt lat="49.07393" lon="0.79217">
        <ele>136.64</ele>
        <time>2021-04-30T12:21:09Z</time>
      </trkpt>
      <trkpt lat="49.07359" lon="0.79206">
        <ele>133.76</ele>
        <time>2021-04-30T12:21:15Z</time>
      </trkpt>
      <trkpt lat="49.07304" lon="0.7919">
        <ele>130.4</ele>
        <time>2021-04-30T12:21:23Z</time>
      </trkpt>
      <trkpt lat="49.07241" lon="0.7917">
        <ele>131.36</ele>
        <time>2021-04-30T12:21:36Z</time>
      </trkpt>
      <trkpt lat="49.07237" lon="0.79169">
        <ele>131.36</ele>
        <time>2021-04-30T12:21:37Z</time>
      </trkpt>
      <trkpt lat="49.07206" lon="0.79161">
        <ele>132.32</ele>
        <time>2021-04-30T12:21:45Z</time>
      </trkpt>
      <trkpt lat="49.07151" lon="0.79146">
        <ele>132.32</ele>
        <time>2021-04-30T12:21:57Z</time>
      </trkpt>
      <trkpt lat="49.07142" lon="0.79143">
        <ele>132.32</ele>
        <time>2021-04-30T12:21:59Z</time>
      </trkpt>
      <trkpt lat="49.07102" lon="0.79132">
        <ele>130.88</ele>
        <time>2021-04-30T12:22:07Z</time>
      </trkpt>
      <trkpt lat="49.07087" lon="0.7913">
        <ele>130.4</ele>
        <time>2021-04-30T12:22:10Z</time>
      </trkpt>
      <trkpt lat="49.07082" lon="0.7913">
        <ele>130.4</ele>
        <time>2021-04-30T12:22:11Z</time>
      </trkpt>
      <trkpt lat="49.07077" lon="0.79129">
        <ele>129.92</ele>
        <time>2021-04-30T12:22:12Z</time>
      </trkpt>
      <trkpt lat="49.07072" lon="0.79125">
        <ele>129.92</ele>
        <time>2021-04-30T12:22:13Z</time>
      </trkpt>
      <trkpt lat="49.07069" lon="0.7912">
        <ele>129.92</ele>
        <time>2021-04-30T12:22:14Z</time>
      </trkpt>
      <trkpt lat="49.07066" lon="0.79112">
        <ele>128.95</ele>
        <time>2021-04-30T12:22:15Z</time>
      </trkpt>
      <trkpt lat="49.07064" lon="0.79106">
        <ele>128.47</ele>
        <time>2021-04-30T12:22:16Z</time>
      </trkpt>
      <trkpt lat="49.07062" lon="0.791">
        <ele>128.47</ele>
        <time>2021-04-30T12:22:17Z</time>
      </trkpt>
      <trkpt lat="49.07054" lon="0.79082">
        <ele>128.47</ele>
        <time>2021-04-30T12:22:24Z</time>
      </trkpt>
      <trkpt lat="49.07054" lon="0.79083">
        <ele>128.47</ele>
        <time>2021-04-30T12:22:25Z</time>
      </trkpt>
      <trkpt lat="49.07055" lon="0.79086">
        <ele>128.95</ele>
        <time>2021-04-30T12:22:26Z</time>
      </trkpt>
      <trkpt lat="49.07071" lon="0.7913">
        <ele>128.95</ele>
        <time>2021-04-30T12:22:38Z</time>
      </trkpt>
      <trkpt lat="49.07096" lon="0.79234">
        <ele>128.95</ele>
        <time>2021-04-30T12:22:54Z</time>
      </trkpt>
      <trkpt lat="49.07126" lon="0.79353">
        <ele>130.4</ele>
        <time>2021-04-30T12:23:11Z</time>
      </trkpt>
      <trkpt lat="49.07154" lon="0.79464">
        <ele>130.4</ele>
        <time>2021-04-30T12:23:26Z</time>
      </trkpt>
      <trkpt lat="49.07172" lon="0.79537">
        <ele>131.36</ele>
        <time>2021-04-30T12:23:39Z</time>
      </trkpt>
      <trkpt lat="49.07175" lon="0.79548">
        <ele>131.36</ele>
        <time>2021-04-30T12:23:42Z</time>
      </trkpt>
      <trkpt lat="49.07173" lon="0.79549">
        <ele>131.36</ele>
        <time>2021-04-30T12:23:44Z</time>
      </trkpt>
      <trkpt lat="49.07172" lon="0.79549">
        <ele>131.36</ele>
        <time>2021-04-30T12:23:45Z</time>
      </trkpt>
      <trkpt lat="49.07171" lon="0.79549">
        <ele>131.36</ele>
        <time>2021-04-30T12:23:46Z</time>
      </trkpt>
      <trkpt lat="49.07169" lon="0.79548">
        <ele>131.36</ele>
        <time>2021-04-30T12:23:47Z</time>
      </trkpt>
      <trkpt lat="49.07167" lon="0.79547">
        <ele>129.92</ele>
        <time>2021-04-30T12:23:48Z</time>
      </trkpt>
      <trkpt lat="49.07165" lon="0.79546">
        <ele>129.43</ele>
        <time>2021-04-30T12:23:49Z</time>
      </trkpt>
      <trkpt lat="49.07139" lon="0.79547">
        <ele>126.55</ele>
        <time>2021-04-30T12:23:58Z</time>
      </trkpt>
      <trkpt lat="49.07135" lon="0.79549">
        <ele>126.07</ele>
        <time>2021-04-30T12:23:59Z</time>
      </trkpt>
      <trkpt lat="49.07131" lon="0.79552">
        <ele>125.59</ele>
        <time>2021-04-30T12:24:00Z</time>
      </trkpt>
      <trkpt lat="49.07127" lon="0.79556">
        <ele>125.11</ele>
        <time>2021-04-30T12:24:01Z</time>
      </trkpt>
      <trkpt lat="49.07123" lon="0.79561">
        <ele>124.15</ele>
        <time>2021-04-30T12:24:02Z</time>
      </trkpt>
      <trkpt lat="49.07121" lon="0.79565">
        <ele>124.15</ele>
        <time>2021-04-30T12:24:03Z</time>
      </trkpt>
      <trkpt lat="49.07102" lon="0.79587">
        <ele>120.3</ele>
        <time>2021-04-30T12:24:09Z</time>
      </trkpt>
      <trkpt lat="49.07091" lon="0.796">
        <ele>118.38</ele>
        <time>2021-04-30T12:24:12Z</time>
      </trkpt>
      <trkpt lat="49.07088" lon="0.79607">
        <ele>117.42</ele>
        <time>2021-04-30T12:24:13Z</time>
      </trkpt>
      <trkpt lat="49.07085" lon="0.79614">
        <ele>116.94</ele>
        <time>2021-04-30T12:24:14Z</time>
      </trkpt>
      <trkpt lat="49.07082" lon="0.79621">
        <ele>116.46</ele>
        <time>2021-04-30T12:24:15Z</time>
      </trkpt>
      <trkpt lat="49.0708" lon="0.79629">
        <ele>115.98</ele>
        <time>2021-04-30T12:24:16Z</time>
      </trkpt>
      <trkpt lat="49.07078" lon="0.79637">
        <ele>115.01</ele>
        <time>2021-04-30T12:24:17Z</time>
      </trkpt>
      <trkpt lat="49.07077" lon="0.79644">
        <ele>114.53</ele>
        <time>2021-04-30T12:24:18Z</time>
      </trkpt>
      <trkpt lat="49.07075" lon="0.79652">
        <ele>114.05</ele>
        <time>2021-04-30T12:24:19Z</time>
      </trkpt>
      <trkpt lat="49.07073" lon="0.79662">
        <ele>114.05</ele>
        <time>2021-04-30T12:24:20Z</time>
      </trkpt>
      <trkpt lat="49.07072" lon="0.79671">
        <ele>113.09</ele>
        <time>2021-04-30T12:24:21Z</time>
      </trkpt>
      <trkpt lat="49.07071" lon="0.7968">
        <ele>112.13</ele>
        <time>2021-04-30T12:24:22Z</time>
      </trkpt>
      <trkpt lat="49.07071" lon="0.79689">
        <ele>112.13</ele>
        <time>2021-04-30T12:24:23Z</time>
      </trkpt>
      <trkpt lat="49.0707" lon="0.79707">
        <ele>111.65</ele>
        <time>2021-04-30T12:24:25Z</time>
      </trkpt>
      <trkpt lat="49.07057" lon="0.79819">
        <ele>109.73</ele>
        <time>2021-04-30T12:24:38Z</time>
      </trkpt>
      <trkpt lat="49.07055" lon="0.79826">
        <ele>109.73</ele>
        <time>2021-04-30T12:24:39Z</time>
      </trkpt>
      <trkpt lat="49.07053" lon="0.79832">
        <ele>109.25</ele>
        <time>2021-04-30T12:24:40Z</time>
      </trkpt>
      <trkpt lat="49.07031" lon="0.79861">
        <ele>107.81</ele>
        <time>2021-04-30T12:24:49Z</time>
      </trkpt>
      <trkpt lat="49.0702" lon="0.79864">
        <ele>106.36</ele>
        <time>2021-04-30T12:24:52Z</time>
      </trkpt>
      <trkpt lat="49.06994" lon="0.79876">
        <ele>105.4</ele>
        <time>2021-04-30T12:25:02Z</time>
      </trkpt>
      <trkpt lat="49.06976" lon="0.79912">
        <ele>104.92</ele>
        <time>2021-04-30T12:25:12Z</time>
      </trkpt>
      <trkpt lat="49.06946" lon="0.79983">
        <ele>104.44</ele>
        <time>2021-04-30T12:25:25Z</time>
      </trkpt>
      <trkpt lat="49.06943" lon="0.79992">
        <ele>104.44</ele>
        <time>2021-04-30T12:25:28Z</time>
      </trkpt>
      <trkpt lat="49.06944" lon="0.79991">
        <ele>104.44</ele>
        <time>2021-04-30T12:25:32Z</time>
      </trkpt>
      <trkpt lat="49.06945" lon="0.79985">
        <ele>104.44</ele>
        <time>2021-04-30T12:25:35Z</time>
      </trkpt>
      <trkpt lat="49.06947" lon="0.79982">
        <ele>104.44</ele>
        <time>2021-04-30T12:25:36Z</time>
      </trkpt>
      <trkpt lat="49.06948" lon="0.79978">
        <ele>104.44</ele>
        <time>2021-04-30T12:25:37Z</time>
      </trkpt>
      <trkpt lat="49.06971" lon="0.79922">
        <ele>104.44</ele>
        <time>2021-04-30T12:25:49Z</time>
      </trkpt>
      <trkpt lat="49.06983" lon="0.79891">
        <ele>105.88</ele>
        <time>2021-04-30T12:25:57Z</time>
      </trkpt>
      <trkpt lat="49.06982" lon="0.79883">
        <ele>105.88</ele>
        <time>2021-04-30T12:26:00Z</time>
      </trkpt>
      <trkpt lat="49.06981" lon="0.79881">
        <ele>106.36</ele>
        <time>2021-04-30T12:26:01Z</time>
      </trkpt>
      <trkpt lat="49.0698" lon="0.79881">
        <ele>106.36</ele>
        <time>2021-04-30T12:26:02Z</time>
      </trkpt>
      <trkpt lat="49.06978" lon="0.79881">
        <ele>106.36</ele>
        <time>2021-04-30T12:26:03Z</time>
      </trkpt>
      <trkpt lat="49.06977" lon="0.79881">
        <ele>106.36</ele>
        <time>2021-04-30T12:26:04Z</time>
      </trkpt>
      <trkpt lat="49.06965" lon="0.79883">
        <ele>107.32</ele>
        <time>2021-04-30T12:26:18Z</time>
      </trkpt>
      <trkpt lat="49.06966" lon="0.79884">
        <ele>106.36</ele>
        <time>2021-04-30T12:26:47Z</time>
      </trkpt>
      <trkpt lat="49.06967" lon="0.79885">
        <ele>106.36</ele>
        <time>2021-04-30T12:26:49Z</time>
      </trkpt>
      <trkpt lat="49.06969" lon="0.79884">
        <ele>106.36</ele>
        <time>2021-04-30T12:26:50Z</time>
      </trkpt>
      <trkpt lat="49.06985" lon="0.79883">
        <ele>105.88</ele>
        <time>2021-04-30T12:26:57Z</time>
      </trkpt>
      <trkpt lat="49.06986" lon="0.79886">
        <ele>105.88</ele>
        <time>2021-04-30T12:26:58Z</time>
      </trkpt>
      <trkpt lat="49.06986" lon="0.79889">
        <ele>105.4</ele>
        <time>2021-04-30T12:26:59Z</time>
      </trkpt>
      <trkpt lat="49.06984" lon="0.79892">
        <ele>104.92</ele>
        <time>2021-04-30T12:27:00Z</time>
      </trkpt>
      <trkpt lat="49.06983" lon="0.79895">
        <ele>104.92</ele>
        <time>2021-04-30T12:27:01Z</time>
      </trkpt>
      <trkpt lat="49.06981" lon="0.799">
        <ele>104.92</ele>
        <time>2021-04-30T12:27:02Z</time>
      </trkpt>
      <trkpt lat="49.06966" lon="0.79936">
        <ele>104.44</ele>
        <time>2021-04-30T12:27:09Z</time>
      </trkpt>
      <trkpt lat="49.06961" lon="0.79948">
        <ele>104.44</ele>
        <time>2021-04-30T12:27:11Z</time>
      </trkpt>
      <trkpt lat="49.06959" lon="0.79953">
        <ele>104.44</ele>
        <time>2021-04-30T12:27:12Z</time>
      </trkpt>
      <trkpt lat="49.0692" lon="0.80042">
        <ele>105.88</ele>
        <time>2021-04-30T12:27:27Z</time>
      </trkpt>
      <trkpt lat="49.06888" lon="0.80103">
        <ele>106.84</ele>
        <time>2021-04-30T12:27:39Z</time>
      </trkpt>
      <trkpt lat="49.06883" lon="0.80112">
        <ele>106.84</ele>
        <time>2021-04-30T12:27:41Z</time>
      </trkpt>
      <trkpt lat="49.0688" lon="0.80117">
        <ele>106.84</ele>
        <time>2021-04-30T12:27:42Z</time>
      </trkpt>
      <trkpt lat="49.06849" lon="0.8016">
        <ele>106.84</ele>
        <time>2021-04-30T12:27:52Z</time>
      </trkpt>
      <trkpt lat="49.06788" lon="0.80192">
        <ele>107.32</ele>
        <time>2021-04-30T12:28:07Z</time>
      </trkpt>
      <trkpt lat="49.06726" lon="0.80222">
        <ele>108.29</ele>
        <time>2021-04-30T12:28:23Z</time>
      </trkpt>
      <trkpt lat="49.06687" lon="0.80252">
        <ele>109.25</ele>
        <time>2021-04-30T12:28:38Z</time>
      </trkpt>
      <trkpt lat="49.06659" lon="0.80296">
        <ele>111.17</ele>
        <time>2021-04-30T12:28:53Z</time>
      </trkpt>
      <trkpt lat="49.06625" lon="0.80346">
        <ele>111.65</ele>
        <time>2021-04-30T12:29:08Z</time>
      </trkpt>
      <trkpt lat="49.0657" lon="0.80367">
        <ele>112.13</ele>
        <time>2021-04-30T12:29:23Z</time>
      </trkpt>
      <trkpt lat="49.06532" lon="0.80407">
        <ele>113.09</ele>
        <time>2021-04-30T12:29:36Z</time>
      </trkpt>
      <trkpt lat="49.06508" lon="0.8049">
        <ele>115.01</ele>
        <time>2021-04-30T12:29:52Z</time>
      </trkpt>
      <trkpt lat="49.06483" lon="0.80543">
        <ele>115.5</ele>
        <time>2021-04-30T12:30:04Z</time>
      </trkpt>
      <trkpt lat="49.06465" lon="0.80587">
        <ele>115.5</ele>
        <time>2021-04-30T12:30:17Z</time>
      </trkpt>
      <trkpt lat="49.06462" lon="0.80639">
        <ele>116.94</ele>
        <time>2021-04-30T12:30:28Z</time>
      </trkpt>
      <trkpt lat="49.0647" lon="0.80708">
        <ele>116.94</ele>
        <time>2021-04-30T12:30:40Z</time>
      </trkpt>
      <trkpt lat="49.06472" lon="0.80748">
        <ele>117.42</ele>
        <time>2021-04-30T12:30:46Z</time>
      </trkpt>
      <trkpt lat="49.06472" lon="0.80755">
        <ele>117.42</ele>
        <time>2021-04-30T12:30:47Z</time>
      </trkpt>
      <trkpt lat="49.06472" lon="0.80762">
        <ele>117.42</ele>
        <time>2021-04-30T12:30:48Z</time>
      </trkpt>
      <trkpt lat="49.06472" lon="0.80777">
        <ele>117.9</ele>
        <time>2021-04-30T12:30:50Z</time>
      </trkpt>
      <trkpt lat="49.06469" lon="0.80801">
        <ele>117.9</ele>
        <time>2021-04-30T12:30:53Z</time>
      </trkpt>
      <trkpt lat="49.0645" lon="0.80858">
        <ele>118.86</ele>
        <time>2021-04-30T12:31:04Z</time>
      </trkpt>
      <trkpt lat="49.06419" lon="0.80886">
        <ele>119.82</ele>
        <time>2021-04-30T12:31:15Z</time>
      </trkpt>
      <trkpt lat="49.06391" lon="0.80937">
        <ele>120.78</ele>
        <time>2021-04-30T12:31:27Z</time>
      </trkpt>
      <trkpt lat="49.06382" lon="0.80985">
        <ele>121.26</ele>
        <time>2021-04-30T12:31:36Z</time>
      </trkpt>
      <trkpt lat="49.06391" lon="0.8104">
        <ele>121.74</ele>
        <time>2021-04-30T12:31:47Z</time>
      </trkpt>
      <trkpt lat="49.06408" lon="0.81095">
        <ele>123.67</ele>
        <time>2021-04-30T12:32:01Z</time>
      </trkpt>
      <trkpt lat="49.0642" lon="0.81139">
        <ele>125.11</ele>
        <time>2021-04-30T12:32:14Z</time>
      </trkpt>
      <trkpt lat="49.06426" lon="0.81171">
        <ele>125.11</ele>
        <time>2021-04-30T12:32:26Z</time>
      </trkpt>
      <trkpt lat="49.06423" lon="0.8118">
        <ele>125.59</ele>
        <time>2021-04-30T12:32:35Z</time>
      </trkpt>
      <trkpt lat="49.06431" lon="0.81183">
        <ele>125.59</ele>
        <time>2021-04-30T12:32:40Z</time>
      </trkpt>
      <trkpt lat="49.06432" lon="0.81185">
        <ele>125.59</ele>
        <time>2021-04-30T12:32:41Z</time>
      </trkpt>
      <trkpt lat="49.06434" lon="0.81188">
        <ele>125.59</ele>
        <time>2021-04-30T12:32:42Z</time>
      </trkpt>
      <trkpt lat="49.0645" lon="0.81223">
        <ele>125.59</ele>
        <time>2021-04-30T12:32:53Z</time>
      </trkpt>
      <trkpt lat="49.06465" lon="0.81285">
        <ele>126.07</ele>
        <time>2021-04-30T12:33:05Z</time>
      </trkpt>
      <trkpt lat="49.06489" lon="0.81326">
        <ele>126.55</ele>
        <time>2021-04-30T12:33:15Z</time>
      </trkpt>
      <trkpt lat="49.06495" lon="0.81333">
        <ele>126.55</ele>
        <time>2021-04-30T12:33:18Z</time>
      </trkpt>
      <trkpt lat="49.06515" lon="0.81341">
        <ele>127.03</ele>
        <time>2021-04-30T12:33:30Z</time>
      </trkpt>
      <trkpt lat="49.06515" lon="0.8134">
        <ele>127.03</ele>
        <time>2021-04-30T12:33:34Z</time>
      </trkpt>
      <trkpt lat="49.06514" lon="0.81341">
        <ele>127.03</ele>
        <time>2021-04-30T12:33:35Z</time>
      </trkpt>
      <trkpt lat="49.065" lon="0.81338">
        <ele>127.03</ele>
        <time>2021-04-30T12:33:43Z</time>
      </trkpt>
      <trkpt lat="49.06494" lon="0.81344">
        <ele>127.03</ele>
        <time>2021-04-30T12:33:46Z</time>
      </trkpt>
      <trkpt lat="49.06493" lon="0.81346">
        <ele>127.03</ele>
        <time>2021-04-30T12:33:47Z</time>
      </trkpt>
      <trkpt lat="49.06493" lon="0.81347">
        <ele>127.03</ele>
        <time>2021-04-30T12:33:48Z</time>
      </trkpt>
      <trkpt lat="49.06493" lon="0.81349">
        <ele>127.51</ele>
        <time>2021-04-30T12:33:49Z</time>
      </trkpt>
      <trkpt lat="49.06492" lon="0.8135">
        <ele>127.51</ele>
        <time>2021-04-30T12:33:50Z</time>
      </trkpt>
      <trkpt lat="49.06492" lon="0.81353">
        <ele>127.99</ele>
        <time>2021-04-30T12:33:51Z</time>
      </trkpt>
      <trkpt lat="49.06492" lon="0.81355">
        <ele>127.99</ele>
        <time>2021-04-30T12:33:52Z</time>
      </trkpt>
      <trkpt lat="49.06493" lon="0.81357">
        <ele>127.99</ele>
        <time>2021-04-30T12:33:53Z</time>
      </trkpt>
      <trkpt lat="49.06493" lon="0.8136">
        <ele>128.47</ele>
        <time>2021-04-30T12:33:54Z</time>
      </trkpt>
      <trkpt lat="49.06493" lon="0.81362">
        <ele>128.95</ele>
        <time>2021-04-30T12:33:55Z</time>
      </trkpt>
      <trkpt lat="49.06493" lon="0.81364">
        <ele>128.95</ele>
        <time>2021-04-30T12:33:56Z</time>
      </trkpt>
      <trkpt lat="49.06492" lon="0.81366">
        <ele>128.95</ele>
        <time>2021-04-30T12:33:57Z</time>
      </trkpt>
      <trkpt lat="49.06485" lon="0.81383">
        <ele>131.84</ele>
        <time>2021-04-30T12:34:07Z</time>
      </trkpt>
      <trkpt lat="49.06469" lon="0.81408">
        <ele>134.72</ele>
        <time>2021-04-30T12:34:21Z</time>
      </trkpt>
      <trkpt lat="49.06456" lon="0.81417">
        <ele>136.16</ele>
        <time>2021-04-30T12:34:30Z</time>
      </trkpt>
      <trkpt lat="49.06455" lon="0.81419">
        <ele>136.64</ele>
        <time>2021-04-30T12:34:31Z</time>
      </trkpt>
      <trkpt lat="49.06454" lon="0.8142">
        <ele>136.64</ele>
        <time>2021-04-30T12:34:32Z</time>
      </trkpt>
      <trkpt lat="49.06452" lon="0.81421">
        <ele>136.64</ele>
        <time>2021-04-30T12:34:33Z</time>
      </trkpt>
      <trkpt lat="49.06451" lon="0.81422">
        <ele>136.64</ele>
        <time>2021-04-30T12:34:34Z</time>
      </trkpt>
      <trkpt lat="49.06449" lon="0.81423">
        <ele>136.64</ele>
        <time>2021-04-30T12:34:35Z</time>
      </trkpt>
      <trkpt lat="49.06435" lon="0.81442">
        <ele>137.61</ele>
        <time>2021-04-30T12:34:47Z</time>
      </trkpt>
      <trkpt lat="49.0641" lon="0.81476">
        <ele>139.53</ele>
        <time>2021-04-30T12:35:03Z</time>
      </trkpt>
      <trkpt lat="49.06388" lon="0.81515">
        <ele>140.49</ele>
        <time>2021-04-30T12:35:15Z</time>
      </trkpt>
      <trkpt lat="49.06363" lon="0.81528">
        <ele>141.93</ele>
        <time>2021-04-30T12:35:26Z</time>
      </trkpt>
      <trkpt lat="49.06339" lon="0.81544">
        <ele>142.89</ele>
        <time>2021-04-30T12:35:37Z</time>
      </trkpt>
      <trkpt lat="49.06315" lon="0.81546">
        <ele>143.37</ele>
        <time>2021-04-30T12:35:47Z</time>
      </trkpt>
      <trkpt lat="49.0628" lon="0.81531">
        <ele>143.37</ele>
        <time>2021-04-30T12:35:59Z</time>
      </trkpt>
      <trkpt lat="49.06248" lon="0.81527">
        <ele>143.37</ele>
        <time>2021-04-30T12:36:09Z</time>
      </trkpt>
      <trkpt lat="49.06246" lon="0.81529">
        <ele>143.85</ele>
        <time>2021-04-30T12:36:10Z</time>
      </trkpt>
      <trkpt lat="49.06243" lon="0.81529">
        <ele>143.85</ele>
        <time>2021-04-30T12:36:11Z</time>
      </trkpt>
      <trkpt lat="49.06233" lon="0.8153">
        <ele>144.34</ele>
        <time>2021-04-30T12:36:22Z</time>
      </trkpt>
      <trkpt lat="49.06205" lon="0.81548">
        <ele>144.34</ele>
        <time>2021-04-30T12:36:31Z</time>
      </trkpt>
      <trkpt lat="49.0617" lon="0.81556">
        <ele>144.34</ele>
        <time>2021-04-30T12:36:42Z</time>
      </trkpt>
      <trkpt lat="49.06136" lon="0.81549">
        <ele>144.34</ele>
        <time>2021-04-30T12:36:54Z</time>
      </trkpt>
      <trkpt lat="49.06104" lon="0.81562">
        <ele>144.82</ele>
        <time>2021-04-30T12:37:05Z</time>
      </trkpt>
      <trkpt lat="49.06066" lon="0.81573">
        <ele>145.78</ele>
        <time>2021-04-30T12:37:19Z</time>
      </trkpt>
      <trkpt lat="49.06038" lon="0.81592">
        <ele>146.74</ele>
        <time>2021-04-30T12:37:32Z</time>
      </trkpt>
      <trkpt lat="49.06001" lon="0.81621">
        <ele>148.18</ele>
        <time>2021-04-30T12:37:47Z</time>
      </trkpt>
      <trkpt lat="49.05967" lon="0.81654">
        <ele>149.14</ele>
        <time>2021-04-30T12:38:03Z</time>
      </trkpt>
      <trkpt lat="49.05967" lon="0.81656">
        <ele>149.14</ele>
        <time>2021-04-30T12:38:04Z</time>
      </trkpt>
      <trkpt lat="49.05966" lon="0.81659">
        <ele>149.14</ele>
        <time>2021-04-30T12:38:05Z</time>
      </trkpt>
      <trkpt lat="49.05967" lon="0.81662">
        <ele>149.14</ele>
        <time>2021-04-30T12:38:06Z</time>
      </trkpt>
      <trkpt lat="49.05968" lon="0.81664">
        <ele>149.14</ele>
        <time>2021-04-30T12:38:07Z</time>
      </trkpt>
      <trkpt lat="49.05969" lon="0.81667">
        <ele>149.14</ele>
        <time>2021-04-30T12:38:08Z</time>
      </trkpt>
      <trkpt lat="49.0597" lon="0.8167">
        <ele>149.14</ele>
        <time>2021-04-30T12:38:09Z</time>
      </trkpt>
      <trkpt lat="49.05971" lon="0.81672">
        <ele>149.62</ele>
        <time>2021-04-30T12:38:10Z</time>
      </trkpt>
      <trkpt lat="49.05972" lon="0.81672">
        <ele>149.62</ele>
        <time>2021-04-30T12:38:11Z</time>
      </trkpt>
      <trkpt lat="49.05972" lon="0.8167">
        <ele>149.62</ele>
        <time>2021-04-30T12:38:12Z</time>
      </trkpt>
      <trkpt lat="49.0597" lon="0.81668">
        <ele>149.62</ele>
        <time>2021-04-30T12:38:13Z</time>
      </trkpt>
      <trkpt lat="49.05969" lon="0.81666">
        <ele>149.62</ele>
        <time>2021-04-30T12:38:14Z</time>
      </trkpt>
      <trkpt lat="49.05966" lon="0.81664">
        <ele>149.62</ele>
        <time>2021-04-30T12:38:15Z</time>
      </trkpt>
      <trkpt lat="49.0594" lon="0.81626">
        <ele>149.62</ele>
        <time>2021-04-30T12:38:26Z</time>
      </trkpt>
      <trkpt lat="49.05915" lon="0.81609">
        <ele>148.66</ele>
        <time>2021-04-30T12:38:32Z</time>
      </trkpt>
      <trkpt lat="49.0584" lon="0.81562">
        <ele>146.74</ele>
        <time>2021-04-30T12:38:48Z</time>
      </trkpt>
      <trkpt lat="49.05767" lon="0.81518">
        <ele>143.37</ele>
        <time>2021-04-30T12:39:02Z</time>
      </trkpt>
      <trkpt lat="49.05735" lon="0.81508">
        <ele>141.45</ele>
        <time>2021-04-30T12:39:07Z</time>
      </trkpt>
      <trkpt lat="49.05727" lon="0.81509">
        <ele>140.49</ele>
        <time>2021-04-30T12:39:08Z</time>
      </trkpt>
      <trkpt lat="49.0572" lon="0.81512">
        <ele>140.49</ele>
        <time>2021-04-30T12:39:09Z</time>
      </trkpt>
      <trkpt lat="49.05713" lon="0.81515">
        <ele>139.53</ele>
        <time>2021-04-30T12:39:10Z</time>
      </trkpt>
      <trkpt lat="49.05706" lon="0.81518">
        <ele>139.05</ele>
        <time>2021-04-30T12:39:11Z</time>
      </trkpt>
      <trkpt lat="49.05691" lon="0.81524">
        <ele>138.57</ele>
        <time>2021-04-30T12:39:13Z</time>
      </trkpt>
      <trkpt lat="49.05683" lon="0.81525">
        <ele>138.09</ele>
        <time>2021-04-30T12:39:14Z</time>
      </trkpt>
      <trkpt lat="49.05676" lon="0.81525">
        <ele>138.09</ele>
        <time>2021-04-30T12:39:15Z</time>
      </trkpt>
      <trkpt lat="49.05668" lon="0.81522">
        <ele>138.09</ele>
        <time>2021-04-30T12:39:16Z</time>
      </trkpt>
      <trkpt lat="49.05661" lon="0.81517">
        <ele>138.09</ele>
        <time>2021-04-30T12:39:17Z</time>
      </trkpt>
      <trkpt lat="49.05655" lon="0.81511">
        <ele>138.09</ele>
        <time>2021-04-30T12:39:18Z</time>
      </trkpt>
      <trkpt lat="49.0565" lon="0.81504">
        <ele>138.09</ele>
        <time>2021-04-30T12:39:19Z</time>
      </trkpt>
      <trkpt lat="49.05645" lon="0.81496">
        <ele>138.09</ele>
        <time>2021-04-30T12:39:20Z</time>
      </trkpt>
      <trkpt lat="49.05642" lon="0.81489">
        <ele>138.09</ele>
        <time>2021-04-30T12:39:21Z</time>
      </trkpt>
      <trkpt lat="49.05639" lon="0.81482">
        <ele>138.09</ele>
        <time>2021-04-30T12:39:22Z</time>
      </trkpt>
      <trkpt lat="49.05633" lon="0.8147">
        <ele>139.53</ele>
        <time>2021-04-30T12:39:24Z</time>
      </trkpt>
      <trkpt lat="49.05617" lon="0.81437">
        <ele>141.93</ele>
        <time>2021-04-30T12:39:33Z</time>
      </trkpt>
      <trkpt lat="49.05589" lon="0.81409">
        <ele>143.85</ele>
        <time>2021-04-30T12:39:46Z</time>
      </trkpt>
      <trkpt lat="49.05544" lon="0.81385">
        <ele>144.82</ele>
        <time>2021-04-30T12:40:01Z</time>
      </trkpt>
      <trkpt lat="49.05494" lon="0.81355">
        <ele>145.78</ele>
        <time>2021-04-30T12:40:18Z</time>
      </trkpt>
      <trkpt lat="49.05441" lon="0.81321">
        <ele>146.74</ele>
        <time>2021-04-30T12:40:33Z</time>
      </trkpt>
      <trkpt lat="49.05384" lon="0.81291">
        <ele>149.14</ele>
        <time>2021-04-30T12:40:48Z</time>
      </trkpt>
      <trkpt lat="49.05337" lon="0.81258">
        <ele>150.58</ele>
        <time>2021-04-30T12:41:03Z</time>
      </trkpt>
      <trkpt lat="49.05286" lon="0.81255">
        <ele>153.47</ele>
        <time>2021-04-30T12:41:20Z</time>
      </trkpt>
      <trkpt lat="49.05235" lon="0.81258">
        <ele>156.35</ele>
        <time>2021-04-30T12:41:38Z</time>
      </trkpt>
      <trkpt lat="49.05197" lon="0.81226">
        <ele>156.83</ele>
        <time>2021-04-30T12:41:54Z</time>
      </trkpt>
      <trkpt lat="49.05128" lon="0.81191">
        <ele>157.31</ele>
        <time>2021-04-30T12:42:14Z</time>
      </trkpt>
      <trkpt lat="49.05101" lon="0.81165">
        <ele>158.27</ele>
        <time>2021-04-30T12:42:27Z</time>
      </trkpt>
      <trkpt lat="49.05099" lon="0.81164">
        <ele>158.27</ele>
        <time>2021-04-30T12:42:29Z</time>
      </trkpt>
      <trkpt lat="49.05096" lon="0.81162">
        <ele>158.27</ele>
        <time>2021-04-30T12:42:30Z</time>
      </trkpt>
      <trkpt lat="49.05094" lon="0.81161">
        <ele>158.27</ele>
        <time>2021-04-30T12:42:31Z</time>
      </trkpt>
      <trkpt lat="49.05091" lon="0.81161">
        <ele>158.27</ele>
        <time>2021-04-30T12:42:32Z</time>
      </trkpt>
      <trkpt lat="49.05087" lon="0.81162">
        <ele>158.27</ele>
        <time>2021-04-30T12:42:33Z</time>
      </trkpt>
      <trkpt lat="49.05084" lon="0.81163">
        <ele>158.27</ele>
        <time>2021-04-30T12:42:34Z</time>
      </trkpt>
      <trkpt lat="49.05081" lon="0.81163">
        <ele>158.27</ele>
        <time>2021-04-30T12:42:35Z</time>
      </trkpt>
      <trkpt lat="49.05077" lon="0.81163">
        <ele>158.27</ele>
        <time>2021-04-30T12:42:37Z</time>
      </trkpt>
      <trkpt lat="49.05076" lon="0.81162">
        <ele>158.27</ele>
        <time>2021-04-30T12:42:38Z</time>
      </trkpt>
      <trkpt lat="49.05075" lon="0.81162">
        <ele>158.27</ele>
        <time>2021-04-30T12:42:39Z</time>
      </trkpt>
      <trkpt lat="49.05074" lon="0.81163">
        <ele>158.27</ele>
        <time>2021-04-30T12:42:40Z</time>
      </trkpt>
      <trkpt lat="49.05073" lon="0.81165">
        <ele>158.27</ele>
        <time>2021-04-30T12:42:41Z</time>
      </trkpt>
      <trkpt lat="49.05073" lon="0.81168">
        <ele>158.27</ele>
        <time>2021-04-30T12:42:42Z</time>
      </trkpt>
      <trkpt lat="49.05075" lon="0.8117">
        <ele>158.27</ele>
        <time>2021-04-30T12:42:43Z</time>
      </trkpt>
      <trkpt lat="49.05077" lon="0.8117">
        <ele>158.27</ele>
        <time>2021-04-30T12:42:44Z</time>
      </trkpt>
      <trkpt lat="49.05079" lon="0.81169">
        <ele>158.27</ele>
        <time>2021-04-30T12:42:45Z</time>
      </trkpt>
      <trkpt lat="49.05082" lon="0.81168">
        <ele>158.27</ele>
        <time>2021-04-30T12:42:46Z</time>
      </trkpt>
      <trkpt lat="49.05131" lon="0.81151">
        <ele>158.27</ele>
        <time>2021-04-30T12:42:59Z</time>
      </trkpt>
      <trkpt lat="49.05212" lon="0.81128">
        <ele>156.35</ele>
        <time>2021-04-30T12:43:15Z</time>
      </trkpt>
      <trkpt lat="49.05309" lon="0.81098">
        <ele>153.95</ele>
        <time>2021-04-30T12:43:32Z</time>
      </trkpt>
      <trkpt lat="49.05381" lon="0.81037">
        <ele>150.58</ele>
        <time>2021-04-30T12:43:46Z</time>
      </trkpt>
      <trkpt lat="49.05385" lon="0.8103">
        <ele>150.1</ele>
        <time>2021-04-30T12:43:47Z</time>
      </trkpt>
      <trkpt lat="49.05389" lon="0.81023">
        <ele>150.1</ele>
        <time>2021-04-30T12:43:48Z</time>
      </trkpt>
      <trkpt lat="49.05391" lon="0.81015">
        <ele>150.1</ele>
        <time>2021-04-30T12:43:49Z</time>
      </trkpt>
      <trkpt lat="49.05394" lon="0.81007">
        <ele>149.62</ele>
        <time>2021-04-30T12:43:50Z</time>
      </trkpt>
      <trkpt lat="49.05396" lon="0.81002">
        <ele>149.14</ele>
        <time>2021-04-30T12:43:51Z</time>
      </trkpt>
      <trkpt lat="49.05422" lon="0.80967">
        <ele>146.74</ele>
        <time>2021-04-30T12:44:01Z</time>
      </trkpt>
      <trkpt lat="49.05429" lon="0.80955">
        <ele>145.3</ele>
        <time>2021-04-30T12:44:04Z</time>
      </trkpt>
      <trkpt lat="49.05433" lon="0.80931">
        <ele>142.41</ele>
        <time>2021-04-30T12:44:09Z</time>
      </trkpt>
      <trkpt lat="49.05436" lon="0.80906">
        <ele>139.05</ele>
        <time>2021-04-30T12:44:14Z</time>
      </trkpt>
      <trkpt lat="49.05441" lon="0.80879">
        <ele>135.2</ele>
        <time>2021-04-30T12:44:19Z</time>
      </trkpt>
      <trkpt lat="49.05446" lon="0.80862">
        <ele>132.8</ele>
        <time>2021-04-30T12:44:24Z</time>
      </trkpt>
      <trkpt lat="49.05445" lon="0.8086">
        <ele>132.32</ele>
        <time>2021-04-30T12:44:25Z</time>
      </trkpt>
      <trkpt lat="49.05427" lon="0.80861">
        <ele>129.43</ele>
        <time>2021-04-30T12:44:35Z</time>
      </trkpt>
      <trkpt lat="49.05398" lon="0.80862">
        <ele>125.59</ele>
        <time>2021-04-30T12:44:43Z</time>
      </trkpt>
      <trkpt lat="49.05369" lon="0.80847">
        <ele>122.22</ele>
        <time>2021-04-30T12:44:52Z</time>
      </trkpt>
      <trkpt lat="49.05342" lon="0.80828">
        <ele>119.34</ele>
        <time>2021-04-30T12:44:59Z</time>
      </trkpt>
      <trkpt lat="49.05334" lon="0.80823">
        <ele>118.38</ele>
        <time>2021-04-30T12:45:01Z</time>
      </trkpt>
      <trkpt lat="49.0533" lon="0.8082">
        <ele>117.9</ele>
        <time>2021-04-30T12:45:02Z</time>
      </trkpt>
      <trkpt lat="49.05325" lon="0.80819">
        <ele>117.42</ele>
        <time>2021-04-30T12:45:03Z</time>
      </trkpt>
      <trkpt lat="49.05295" lon="0.80807">
        <ele>114.05</ele>
        <time>2021-04-30T12:45:11Z</time>
      </trkpt>
      <trkpt lat="49.05287" lon="0.80801">
        <ele>112.61</ele>
        <time>2021-04-30T12:45:13Z</time>
      </trkpt>
      <trkpt lat="49.05283" lon="0.80797">
        <ele>112.13</ele>
        <time>2021-04-30T12:45:14Z</time>
      </trkpt>
      <trkpt lat="49.05279" lon="0.80795">
        <ele>111.65</ele>
        <time>2021-04-30T12:45:15Z</time>
      </trkpt>
      <trkpt lat="49.05253" lon="0.80777">
        <ele>108.29</ele>
        <time>2021-04-30T12:45:23Z</time>
      </trkpt>
      <trkpt lat="49.05234" lon="0.80744">
        <ele>104.92</ele>
        <time>2021-04-30T12:45:30Z</time>
      </trkpt>
      <trkpt lat="49.05205" lon="0.80677">
        <ele>103</ele>
        <time>2021-04-30T12:45:41Z</time>
      </trkpt>
      <trkpt lat="49.05183" lon="0.80615">
        <ele>102.04</ele>
        <time>2021-04-30T12:45:54Z</time>
      </trkpt>
      <trkpt lat="49.05158" lon="0.8052">
        <ele>101.08</ele>
        <time>2021-04-30T12:46:07Z</time>
      </trkpt>
      <trkpt lat="49.05155" lon="0.80508">
        <ele>101.08</ele>
        <time>2021-04-30T12:46:09Z</time>
      </trkpt>
      <trkpt lat="49.0515" lon="0.80497">
        <ele>100.6</ele>
        <time>2021-04-30T12:46:11Z</time>
      </trkpt>
      <trkpt lat="49.05147" lon="0.80492">
        <ele>100.6</ele>
        <time>2021-04-30T12:46:12Z</time>
      </trkpt>
      <trkpt lat="49.05144" lon="0.80487">
        <ele>100.6</ele>
        <time>2021-04-30T12:46:13Z</time>
      </trkpt>
      <trkpt lat="49.0514" lon="0.80483">
        <ele>100.6</ele>
        <time>2021-04-30T12:46:14Z</time>
      </trkpt>
      <trkpt lat="49.05136" lon="0.80479">
        <ele>100.11</ele>
        <time>2021-04-30T12:46:15Z</time>
      </trkpt>
      <trkpt lat="49.05133" lon="0.80477">
        <ele>100.11</ele>
        <time>2021-04-30T12:46:16Z</time>
      </trkpt>
      <trkpt lat="49.05129" lon="0.80475">
        <ele>100.11</ele>
        <time>2021-04-30T12:46:17Z</time>
      </trkpt>
      <trkpt lat="49.05124" lon="0.80473">
        <ele>100.11</ele>
        <time>2021-04-30T12:46:18Z</time>
      </trkpt>
      <trkpt lat="49.05082" lon="0.80448">
        <ele>100.11</ele>
        <time>2021-04-30T12:46:29Z</time>
      </trkpt>
      <trkpt lat="49.05079" lon="0.80444">
        <ele>100.11</ele>
        <time>2021-04-30T12:46:30Z</time>
      </trkpt>
      <trkpt lat="49.05077" lon="0.80439">
        <ele>100.11</ele>
        <time>2021-04-30T12:46:31Z</time>
      </trkpt>
      <trkpt lat="49.05075" lon="0.80434">
        <ele>100.11</ele>
        <time>2021-04-30T12:46:32Z</time>
      </trkpt>
      <trkpt lat="49.05075" lon="0.80429">
        <ele>100.11</ele>
        <time>2021-04-30T12:46:33Z</time>
      </trkpt>
      <trkpt lat="49.05075" lon="0.80423">
        <ele>100.11</ele>
        <time>2021-04-30T12:46:34Z</time>
      </trkpt>
      <trkpt lat="49.05075" lon="0.80417">
        <ele>100.11</ele>
        <time>2021-04-30T12:46:35Z</time>
      </trkpt>
      <trkpt lat="49.05077" lon="0.80392">
        <ele>100.11</ele>
        <time>2021-04-30T12:46:39Z</time>
      </trkpt>
      <trkpt lat="49.05073" lon="0.80297">
        <ele>100.11</ele>
        <time>2021-04-30T12:46:55Z</time>
      </trkpt>
      <trkpt lat="49.05047" lon="0.80285">
        <ele>99.63</ele>
        <time>2021-04-30T12:47:04Z</time>
      </trkpt>
      <trkpt lat="49.04998" lon="0.8027">
        <ele>99.15</ele>
        <time>2021-04-30T12:47:18Z</time>
      </trkpt>
      <trkpt lat="49.04981" lon="0.80201">
        <ele>100.6</ele>
        <time>2021-04-30T12:47:33Z</time>
      </trkpt>
      <trkpt lat="49.04968" lon="0.80148">
        <ele>100.6</ele>
        <time>2021-04-30T12:47:42Z</time>
      </trkpt>
      <trkpt lat="49.04961" lon="0.80117">
        <ele>100.6</ele>
        <time>2021-04-30T12:47:47Z</time>
      </trkpt>
      <trkpt lat="49.04934" lon="0.80041">
        <ele>100.6</ele>
        <time>2021-04-30T12:48:00Z</time>
      </trkpt>
      <trkpt lat="49.04928" lon="0.79994">
        <ele>100.11</ele>
        <time>2021-04-30T12:48:11Z</time>
      </trkpt>
      <trkpt lat="49.04921" lon="0.79939">
        <ele>100.11</ele>
        <time>2021-04-30T12:48:25Z</time>
      </trkpt>
      <trkpt lat="49.0491" lon="0.79868">
        <ele>100.11</ele>
        <time>2021-04-30T12:48:39Z</time>
      </trkpt>
      <trkpt lat="49.04905" lon="0.79851">
        <ele>100.6</ele>
        <time>2021-04-30T12:48:50Z</time>
      </trkpt>
      <trkpt lat="49.04901" lon="0.79824">
        <ele>101.08</ele>
        <time>2021-04-30T12:49:04Z</time>
      </trkpt>
      <trkpt lat="49.04897" lon="0.79811">
        <ele>101.08</ele>
        <time>2021-04-30T12:49:13Z</time>
      </trkpt>
      <trkpt lat="49.04896" lon="0.79804">
        <ele>101.08</ele>
        <time>2021-04-30T12:49:25Z</time>
      </trkpt>
      <trkpt lat="49.04894" lon="0.7977">
        <ele>103</ele>
        <time>2021-04-30T12:49:38Z</time>
      </trkpt>
      <trkpt lat="49.0489" lon="0.79738">
        <ele>105.88</ele>
        <time>2021-04-30T12:49:52Z</time>
      </trkpt>
      <trkpt lat="49.0489" lon="0.79721">
        <ele>106.84</ele>
        <time>2021-04-30T12:49:59Z</time>
      </trkpt>
      <trkpt lat="49.04891" lon="0.79718">
        <ele>107.32</ele>
        <time>2021-04-30T12:50:01Z</time>
      </trkpt>
      <trkpt lat="49.0489" lon="0.797">
        <ele>107.81</ele>
        <time>2021-04-30T12:50:08Z</time>
      </trkpt>
      <trkpt lat="49.04887" lon="0.79693">
        <ele>107.81</ele>
        <time>2021-04-30T12:50:10Z</time>
      </trkpt>
      <trkpt lat="49.04884" lon="0.79684">
        <ele>108.29</ele>
        <time>2021-04-30T12:50:21Z</time>
      </trkpt>
      <trkpt lat="49.04884" lon="0.79681">
        <ele>108.77</ele>
        <time>2021-04-30T12:50:29Z</time>
      </trkpt>
      <trkpt lat="49.04884" lon="0.79679">
        <ele>108.77</ele>
        <time>2021-04-30T12:50:30Z</time>
      </trkpt>
      <trkpt lat="49.04884" lon="0.79677">
        <ele>108.77</ele>
        <time>2021-04-30T12:50:31Z</time>
      </trkpt>
      <trkpt lat="49.04884" lon="0.79675">
        <ele>109.25</ele>
        <time>2021-04-30T12:50:32Z</time>
      </trkpt>
      <trkpt lat="49.04879" lon="0.79659">
        <ele>111.65</ele>
        <time>2021-04-30T12:50:44Z</time>
      </trkpt>
      <trkpt lat="49.04879" lon="0.79658">
        <ele>111.65</ele>
        <time>2021-04-30T12:50:45Z</time>
      </trkpt>
      <trkpt lat="49.04868" lon="0.79648">
        <ele>113.57</ele>
        <time>2021-04-30T12:51:00Z</time>
      </trkpt>
      <trkpt lat="49.04864" lon="0.79644">
        <ele>114.05</ele>
        <time>2021-04-30T12:51:05Z</time>
      </trkpt>
      <trkpt lat="49.04851" lon="0.7964">
        <ele>115.5</ele>
        <time>2021-04-30T12:51:18Z</time>
      </trkpt>
      <trkpt lat="49.0485" lon="0.79641">
        <ele>115.98</ele>
        <time>2021-04-30T12:51:20Z</time>
      </trkpt>
      <trkpt lat="49.04846" lon="0.79646">
        <ele>115.98</ele>
        <time>2021-04-30T12:51:24Z</time>
      </trkpt>
      <trkpt lat="49.04844" lon="0.79648">
        <ele>115.98</ele>
        <time>2021-04-30T12:51:25Z</time>
      </trkpt>
      <trkpt lat="49.04838" lon="0.79656">
        <ele>115.98</ele>
        <time>2021-04-30T12:51:29Z</time>
      </trkpt>
      <trkpt lat="49.04837" lon="0.79657">
        <ele>115.98</ele>
        <time>2021-04-30T12:51:30Z</time>
      </trkpt>
      <trkpt lat="49.04835" lon="0.79659">
        <ele>115.98</ele>
        <time>2021-04-30T12:51:31Z</time>
      </trkpt>
      <trkpt lat="49.04834" lon="0.79661">
        <ele>115.98</ele>
        <time>2021-04-30T12:51:32Z</time>
      </trkpt>
      <trkpt lat="49.04832" lon="0.79664">
        <ele>114.53</ele>
        <time>2021-04-30T12:51:33Z</time>
      </trkpt>
      <trkpt lat="49.0483" lon="0.79666">
        <ele>114.53</ele>
        <time>2021-04-30T12:51:34Z</time>
      </trkpt>
      <trkpt lat="49.04828" lon="0.79668">
        <ele>114.53</ele>
        <time>2021-04-30T12:51:35Z</time>
      </trkpt>
      <trkpt lat="49.04796" lon="0.79687">
        <ele>114.53</ele>
        <time>2021-04-30T12:51:46Z</time>
      </trkpt>
      <trkpt lat="49.04759" lon="0.79691">
        <ele>114.53</ele>
        <time>2021-04-30T12:51:58Z</time>
      </trkpt>
      <trkpt lat="49.04735" lon="0.7969">
        <ele>115.98</ele>
        <time>2021-04-30T12:52:08Z</time>
      </trkpt>
      <trkpt lat="49.04703" lon="0.79689">
        <ele>116.94</ele>
        <time>2021-04-30T12:52:22Z</time>
      </trkpt>
      <trkpt lat="49.04671" lon="0.79691">
        <ele>118.38</ele>
        <time>2021-04-30T12:52:35Z</time>
      </trkpt>
      <trkpt lat="49.04633" lon="0.79695">
        <ele>118.86</ele>
        <time>2021-04-30T12:52:47Z</time>
      </trkpt>
      <trkpt lat="49.04584" lon="0.79695">
        <ele>120.3</ele>
        <time>2021-04-30T12:52:59Z</time>
      </trkpt>
      <trkpt lat="49.04541" lon="0.79704">
        <ele>121.26</ele>
        <time>2021-04-30T12:53:12Z</time>
      </trkpt>
      <trkpt lat="49.04506" lon="0.79727">
        <ele>121.26</ele>
        <time>2021-04-30T12:53:22Z</time>
      </trkpt>
      <trkpt lat="49.04461" lon="0.79757">
        <ele>121.26</ele>
        <time>2021-04-30T12:53:35Z</time>
      </trkpt>
      <trkpt lat="49.04414" lon="0.79778">
        <ele>122.22</ele>
        <time>2021-04-30T12:53:50Z</time>
      </trkpt>
      <trkpt lat="49.04359" lon="0.79797">
        <ele>122.71</ele>
        <time>2021-04-30T12:54:06Z</time>
      </trkpt>
      <trkpt lat="49.04351" lon="0.798">
        <ele>123.19</ele>
        <time>2021-04-30T12:54:09Z</time>
      </trkpt>
      <trkpt lat="49.0435" lon="0.79803">
        <ele>123.67</ele>
        <time>2021-04-30T12:54:10Z</time>
      </trkpt>
      <trkpt lat="49.04348" lon="0.79806">
        <ele>123.67</ele>
        <time>2021-04-30T12:54:11Z</time>
      </trkpt>
      <trkpt lat="49.04347" lon="0.7981">
        <ele>123.67</ele>
        <time>2021-04-30T12:54:12Z</time>
      </trkpt>
      <trkpt lat="49.04347" lon="0.79815">
        <ele>123.67</ele>
        <time>2021-04-30T12:54:13Z</time>
      </trkpt>
      <trkpt lat="49.04348" lon="0.7982">
        <ele>123.67</ele>
        <time>2021-04-30T12:54:14Z</time>
      </trkpt>
      <trkpt lat="49.04351" lon="0.79835">
        <ele>121.74</ele>
        <time>2021-04-30T12:54:17Z</time>
      </trkpt>
      <trkpt lat="49.04354" lon="0.79869">
        <ele>120.3</ele>
        <time>2021-04-30T12:54:23Z</time>
      </trkpt>
      <trkpt lat="49.04351" lon="0.79873">
        <ele>119.34</ele>
        <time>2021-04-30T12:54:24Z</time>
      </trkpt>
      <trkpt lat="49.04348" lon="0.79876">
        <ele>119.34</ele>
        <time>2021-04-30T12:54:25Z</time>
      </trkpt>
      <trkpt lat="49.04337" lon="0.79881">
        <ele>119.34</ele>
        <time>2021-04-30T12:54:34Z</time>
      </trkpt>
      <trkpt lat="49.0434" lon="0.79881">
        <ele>119.82</ele>
        <time>2021-04-30T12:54:40Z</time>
      </trkpt>
      <trkpt lat="49.04341" lon="0.79879">
        <ele>119.82</ele>
        <time>2021-04-30T12:54:41Z</time>
      </trkpt>
      <trkpt lat="49.04351" lon="0.7987">
        <ele>119.82</ele>
        <time>2021-04-30T12:54:46Z</time>
      </trkpt>
      <trkpt lat="49.04352" lon="0.79866">
        <ele>119.82</ele>
        <time>2021-04-30T12:54:47Z</time>
      </trkpt>
      <trkpt lat="49.04352" lon="0.79862">
        <ele>119.82</ele>
        <time>2021-04-30T12:54:48Z</time>
      </trkpt>
      <trkpt lat="49.04352" lon="0.79859">
        <ele>119.82</ele>
        <time>2021-04-30T12:54:49Z</time>
      </trkpt>
      <trkpt lat="49.04352" lon="0.79856">
        <ele>119.82</ele>
        <time>2021-04-30T12:54:50Z</time>
      </trkpt>
      <trkpt lat="49.04351" lon="0.79852">
        <ele>119.82</ele>
        <time>2021-04-30T12:54:51Z</time>
      </trkpt>
      <trkpt lat="49.0435" lon="0.79841">
        <ele>120.78</ele>
        <time>2021-04-30T12:54:54Z</time>
      </trkpt>
      <trkpt lat="49.04345" lon="0.79806">
        <ele>122.71</ele>
        <time>2021-04-30T12:55:05Z</time>
      </trkpt>
      <trkpt lat="49.04344" lon="0.79804">
        <ele>123.19</ele>
        <time>2021-04-30T12:55:06Z</time>
      </trkpt>
      <trkpt lat="49.04343" lon="0.79803">
        <ele>123.67</ele>
        <time>2021-04-30T12:55:07Z</time>
      </trkpt>
      <trkpt lat="49.04341" lon="0.79802">
        <ele>123.67</ele>
        <time>2021-04-30T12:55:08Z</time>
      </trkpt>
      <trkpt lat="49.04338" lon="0.79801">
        <ele>123.67</ele>
        <time>2021-04-30T12:55:09Z</time>
      </trkpt>
      <trkpt lat="49.04303" lon="0.79797">
        <ele>124.63</ele>
        <time>2021-04-30T12:55:21Z</time>
      </trkpt>
      <trkpt lat="49.04264" lon="0.79807">
        <ele>126.07</ele>
        <time>2021-04-30T12:55:34Z</time>
      </trkpt>
      <trkpt lat="49.04222" lon="0.79827">
        <ele>126.07</ele>
        <time>2021-04-30T12:55:46Z</time>
      </trkpt>
      <trkpt lat="49.04215" lon="0.79829">
        <ele>124.63</ele>
        <time>2021-04-30T12:55:48Z</time>
      </trkpt>
      <trkpt lat="49.04177" lon="0.79831">
        <ele>124.63</ele>
        <time>2021-04-30T12:56:01Z</time>
      </trkpt>
      <trkpt lat="49.04171" lon="0.7983">
        <ele>125.59</ele>
        <time>2021-04-30T12:56:03Z</time>
      </trkpt>
      <trkpt lat="49.04134" lon="0.79817">
        <ele>126.07</ele>
        <time>2021-04-30T12:56:17Z</time>
      </trkpt>
      <trkpt lat="49.0413" lon="0.79816">
        <ele>125.11</ele>
        <time>2021-04-30T12:56:18Z</time>
      </trkpt>
      <trkpt lat="49.04127" lon="0.79817">
        <ele>125.11</ele>
        <time>2021-04-30T12:56:19Z</time>
      </trkpt>
      <trkpt lat="49.04126" lon="0.79827">
        <ele>123.67</ele>
        <time>2021-04-30T12:56:21Z</time>
      </trkpt>
      <trkpt lat="49.04129" lon="0.7983">
        <ele>123.67</ele>
        <time>2021-04-30T12:56:22Z</time>
      </trkpt>
      <trkpt lat="49.04132" lon="0.79831">
        <ele>123.67</ele>
        <time>2021-04-30T12:56:23Z</time>
      </trkpt>
      <trkpt lat="49.04135" lon="0.79832">
        <ele>123.19</ele>
        <time>2021-04-30T12:56:24Z</time>
      </trkpt>
      <trkpt lat="49.04169" lon="0.79841">
        <ele>122.71</ele>
        <time>2021-04-30T12:56:35Z</time>
      </trkpt>
      <trkpt lat="49.04182" lon="0.79844">
        <ele>121.74</ele>
        <time>2021-04-30T12:56:38Z</time>
      </trkpt>
      <trkpt lat="49.04187" lon="0.79846">
        <ele>121.74</ele>
        <time>2021-04-30T12:56:39Z</time>
      </trkpt>
      <trkpt lat="49.04192" lon="0.79849">
        <ele>120.78</ele>
        <time>2021-04-30T12:56:40Z</time>
      </trkpt>
      <trkpt lat="49.04198" lon="0.79854">
        <ele>120.3</ele>
        <time>2021-04-30T12:56:41Z</time>
      </trkpt>
      <trkpt lat="49.04205" lon="0.7986">
        <ele>119.82</ele>
        <time>2021-04-30T12:56:42Z</time>
      </trkpt>
      <trkpt lat="49.04211" lon="0.79868">
        <ele>118.86</ele>
        <time>2021-04-30T12:56:43Z</time>
      </trkpt>
      <trkpt lat="49.04216" lon="0.79875">
        <ele>118.38</ele>
        <time>2021-04-30T12:56:44Z</time>
      </trkpt>
      <trkpt lat="49.0423" lon="0.79896">
        <ele>116.94</ele>
        <time>2021-04-30T12:56:47Z</time>
      </trkpt>
      <trkpt lat="49.04256" lon="0.79928">
        <ele>115.5</ele>
        <time>2021-04-30T12:56:57Z</time>
      </trkpt>
      <trkpt lat="49.04272" lon="0.7992">
        <ele>116.94</ele>
        <time>2021-04-30T12:57:11Z</time>
      </trkpt>
      <trkpt lat="49.04283" lon="0.79912">
        <ele>117.9</ele>
        <time>2021-04-30T12:57:25Z</time>
      </trkpt>
      <trkpt lat="49.04281" lon="0.79913">
        <ele>117.9</ele>
        <time>2021-04-30T12:57:27Z</time>
      </trkpt>
      <trkpt lat="49.04263" lon="0.79922">
        <ele>115.98</ele>
        <time>2021-04-30T12:57:37Z</time>
      </trkpt>
      <trkpt lat="49.04248" lon="0.79919">
        <ele>115.5</ele>
        <time>2021-04-30T12:57:46Z</time>
      </trkpt>
      <trkpt lat="49.04247" lon="0.79917">
        <ele>115.5</ele>
        <time>2021-04-30T12:57:47Z</time>
      </trkpt>
      <trkpt lat="49.04246" lon="0.79916">
        <ele>115.5</ele>
        <time>2021-04-30T12:57:48Z</time>
      </trkpt>
      <trkpt lat="49.04245" lon="0.79914">
        <ele>115.5</ele>
        <time>2021-04-30T12:57:49Z</time>
      </trkpt>
      <trkpt lat="49.04244" lon="0.79913">
        <ele>115.5</ele>
        <time>2021-04-30T12:57:50Z</time>
      </trkpt>
      <trkpt lat="49.04243" lon="0.79911">
        <ele>115.5</ele>
        <time>2021-04-30T12:57:51Z</time>
      </trkpt>
      <trkpt lat="49.04242" lon="0.7991">
        <ele>114.53</ele>
        <time>2021-04-30T12:57:52Z</time>
      </trkpt>
      <trkpt lat="49.0424" lon="0.79906">
        <ele>117.42</ele>
        <time>2021-04-30T12:57:54Z</time>
      </trkpt>
      <trkpt lat="49.04223" lon="0.79878">
        <ele>117.9</ele>
        <time>2021-04-30T12:58:09Z</time>
      </trkpt>
      <trkpt lat="49.04205" lon="0.79854">
        <ele>119.82</ele>
        <time>2021-04-30T12:58:23Z</time>
      </trkpt>
      <trkpt lat="49.04178" lon="0.7984">
        <ele>122.71</ele>
        <time>2021-04-30T12:58:40Z</time>
      </trkpt>
      <trkpt lat="49.0415" lon="0.79836">
        <ele>123.67</ele>
        <time>2021-04-30T12:58:54Z</time>
      </trkpt>
      <trkpt lat="49.04132" lon="0.79827">
        <ele>124.63</ele>
        <time>2021-04-30T12:59:03Z</time>
      </trkpt>
      <trkpt lat="49.04131" lon="0.79825">
        <ele>124.63</ele>
        <time>2021-04-30T12:59:04Z</time>
      </trkpt>
      <trkpt lat="49.0413" lon="0.79822">
        <ele>124.63</ele>
        <time>2021-04-30T12:59:05Z</time>
      </trkpt>
      <trkpt lat="49.04135" lon="0.79818">
        <ele>125.59</ele>
        <time>2021-04-30T12:59:11Z</time>
      </trkpt>
      <trkpt lat="49.04177" lon="0.79833">
        <ele>124.63</ele>
        <time>2021-04-30T12:59:28Z</time>
      </trkpt>
      <trkpt lat="49.04227" lon="0.79826">
        <ele>124.63</ele>
        <time>2021-04-30T12:59:41Z</time>
      </trkpt>
      <trkpt lat="49.04235" lon="0.79824">
        <ele>125.59</ele>
        <time>2021-04-30T12:59:43Z</time>
      </trkpt>
      <trkpt lat="49.0428" lon="0.79801">
        <ele>126.55</ele>
        <time>2021-04-30T12:59:56Z</time>
      </trkpt>
      <trkpt lat="49.04305" lon="0.79804">
        <ele>125.11</ele>
        <time>2021-04-30T13:00:02Z</time>
      </trkpt>
      <trkpt lat="49.04353" lon="0.79798">
        <ele>123.67</ele>
        <time>2021-04-30T13:00:13Z</time>
      </trkpt>
      <trkpt lat="49.04354" lon="0.79795">
        <ele>123.67</ele>
        <time>2021-04-30T13:00:14Z</time>
      </trkpt>
      <trkpt lat="49.04356" lon="0.79791">
        <ele>123.67</ele>
        <time>2021-04-30T13:00:16Z</time>
      </trkpt>
      <trkpt lat="49.04357" lon="0.79789">
        <ele>123.67</ele>
        <time>2021-04-30T13:00:17Z</time>
      </trkpt>
      <trkpt lat="49.04363" lon="0.79777">
        <ele>125.11</ele>
        <time>2021-04-30T13:00:23Z</time>
      </trkpt>
      <trkpt lat="49.04379" lon="0.79748">
        <ele>127.03</ele>
        <time>2021-04-30T13:00:39Z</time>
      </trkpt>
      <trkpt lat="49.04392" lon="0.79721">
        <ele>130.4</ele>
        <time>2021-04-30T13:00:55Z</time>
      </trkpt>
      <trkpt lat="49.04401" lon="0.79706">
        <ele>133.76</ele>
        <time>2021-04-30T13:01:07Z</time>
      </trkpt>
      <trkpt lat="49.04408" lon="0.79692">
        <ele>134.72</ele>
        <time>2021-04-30T13:01:22Z</time>
      </trkpt>
      <trkpt lat="49.04418" lon="0.79677">
        <ele>138.09</ele>
        <time>2021-04-30T13:01:36Z</time>
      </trkpt>
      <trkpt lat="49.0442" lon="0.79671">
        <ele>140.01</ele>
        <time>2021-04-30T13:01:53Z</time>
      </trkpt>
      <trkpt lat="49.04425" lon="0.79663">
        <ele>142.89</ele>
        <time>2021-04-30T13:02:09Z</time>
      </trkpt>
      <trkpt lat="49.04434" lon="0.7965">
        <ele>146.74</ele>
        <time>2021-04-30T13:02:23Z</time>
      </trkpt>
      <trkpt lat="49.04445" lon="0.79635">
        <ele>149.14</ele>
        <time>2021-04-30T13:02:38Z</time>
      </trkpt>
      <trkpt lat="49.04456" lon="0.79608">
        <ele>151.06</ele>
        <time>2021-04-30T13:02:56Z</time>
      </trkpt>
      <trkpt lat="49.04469" lon="0.79583">
        <ele>152.99</ele>
        <time>2021-04-30T13:03:09Z</time>
      </trkpt>
      <trkpt lat="49.04493" lon="0.7954">
        <ele>153.47</ele>
        <time>2021-04-30T13:03:22Z</time>
      </trkpt>
      <trkpt lat="49.04528" lon="0.79475">
        <ele>153.95</ele>
        <time>2021-04-30T13:03:37Z</time>
      </trkpt>
      <trkpt lat="49.04559" lon="0.79419">
        <ele>154.91</ele>
        <time>2021-04-30T13:03:49Z</time>
      </trkpt>
      <trkpt lat="49.04593" lon="0.79356">
        <ele>155.39</ele>
        <time>2021-04-30T13:04:02Z</time>
      </trkpt>
      <trkpt lat="49.04618" lon="0.7931">
        <ele>154.91</ele>
        <time>2021-04-30T13:04:12Z</time>
      </trkpt>
      <trkpt lat="49.04658" lon="0.79238">
        <ele>154.91</ele>
        <time>2021-04-30T13:04:26Z</time>
      </trkpt>
      <trkpt lat="49.04663" lon="0.79229">
        <ele>155.87</ele>
        <time>2021-04-30T13:04:28Z</time>
      </trkpt>
      <trkpt lat="49.04691" lon="0.79178">
        <ele>156.35</ele>
        <time>2021-04-30T13:04:41Z</time>
      </trkpt>
      <trkpt lat="49.04712" lon="0.79135">
        <ele>155.39</ele>
        <time>2021-04-30T13:04:53Z</time>
      </trkpt>
      <trkpt lat="49.04712" lon="0.79129">
        <ele>154.91</ele>
        <time>2021-04-30T13:05:14Z</time>
      </trkpt>
      <trkpt lat="49.04711" lon="0.79129">
        <ele>156.35</ele>
        <time>2021-04-30T13:05:16Z</time>
      </trkpt>
      <trkpt lat="49.04711" lon="0.79129">
        <ele>154.91</ele>
        <time>2021-04-30T13:05:18Z</time>
      </trkpt>
      <trkpt lat="49.04713" lon="0.79128">
        <ele>156.35</ele>
        <time>2021-04-30T13:05:37Z</time>
      </trkpt>
      <trkpt lat="49.04714" lon="0.79109">
        <ele>156.35</ele>
        <time>2021-04-30T13:05:58Z</time>
      </trkpt>
      <trkpt lat="49.04718" lon="0.79073">
        <ele>157.31</ele>
        <time>2021-04-30T13:06:11Z</time>
      </trkpt>
      <trkpt lat="49.04716" lon="0.79061">
        <ele>157.31</ele>
        <time>2021-04-30T13:06:39Z</time>
      </trkpt>
      <trkpt lat="49.04717" lon="0.79059">
        <ele>157.31</ele>
        <time>2021-04-30T13:06:40Z</time>
      </trkpt>
      <trkpt lat="49.04723" lon="0.79011">
        <ele>157.79</ele>
        <time>2021-04-30T13:06:51Z</time>
      </trkpt>
      <trkpt lat="49.04728" lon="0.78938">
        <ele>159.24</ele>
        <time>2021-04-30T13:07:04Z</time>
      </trkpt>
      <trkpt lat="49.04735" lon="0.78849">
        <ele>160.68</ele>
        <time>2021-04-30T13:07:18Z</time>
      </trkpt>
      <trkpt lat="49.0474" lon="0.78797">
        <ele>162.6</ele>
        <time>2021-04-30T13:07:29Z</time>
      </trkpt>
      <trkpt lat="49.04743" lon="0.78745">
        <ele>163.08</ele>
        <time>2021-04-30T13:07:40Z</time>
      </trkpt>
      <trkpt lat="49.04748" lon="0.78661">
        <ele>164.04</ele>
        <time>2021-04-30T13:07:54Z</time>
      </trkpt>
      <trkpt lat="49.04755" lon="0.78584">
        <ele>165</ele>
        <time>2021-04-30T13:08:06Z</time>
      </trkpt>
      <trkpt lat="49.04763" lon="0.78515">
        <ele>165.96</ele>
        <time>2021-04-30T13:08:17Z</time>
      </trkpt>
      <trkpt lat="49.04772" lon="0.78437">
        <ele>167.41</ele>
        <time>2021-04-30T13:08:29Z</time>
      </trkpt>
      <trkpt lat="49.0478" lon="0.78373">
        <ele>168.37</ele>
        <time>2021-04-30T13:08:41Z</time>
      </trkpt>
      <trkpt lat="49.04785" lon="0.78349">
        <ele>168.85</ele>
        <time>2021-04-30T13:08:49Z</time>
      </trkpt>
      <trkpt lat="49.04791" lon="0.78298">
        <ele>169.33</ele>
        <time>2021-04-30T13:09:02Z</time>
      </trkpt>
      <trkpt lat="49.04795" lon="0.78243">
        <ele>170.29</ele>
        <time>2021-04-30T13:09:15Z</time>
      </trkpt>
      <trkpt lat="49.04796" lon="0.78178">
        <ele>170.29</ele>
        <time>2021-04-30T13:09:29Z</time>
      </trkpt>
      <trkpt lat="49.048" lon="0.78126">
        <ele>170.77</ele>
        <time>2021-04-30T13:09:39Z</time>
      </trkpt>
      <trkpt lat="49.04803" lon="0.78098">
        <ele>170.77</ele>
        <time>2021-04-30T13:09:43Z</time>
      </trkpt>
      <trkpt lat="49.04804" lon="0.78076">
        <ele>170.77</ele>
        <time>2021-04-30T13:09:46Z</time>
      </trkpt>
      <trkpt lat="49.04804" lon="0.78069">
        <ele>170.77</ele>
        <time>2021-04-30T13:09:47Z</time>
      </trkpt>
      <trkpt lat="49.04805" lon="0.78062">
        <ele>170.77</ele>
        <time>2021-04-30T13:09:48Z</time>
      </trkpt>
      <trkpt lat="49.04808" lon="0.78023">
        <ele>170.77</ele>
        <time>2021-04-30T13:09:54Z</time>
      </trkpt>
      <trkpt lat="49.04809" lon="0.78016">
        <ele>170.77</ele>
        <time>2021-04-30T13:09:55Z</time>
      </trkpt>
      <trkpt lat="49.04809" lon="0.77996">
        <ele>170.77</ele>
        <time>2021-04-30T13:09:58Z</time>
      </trkpt>
      <trkpt lat="49.04812" lon="0.77971">
        <ele>171.25</ele>
        <time>2021-04-30T13:10:01Z</time>
      </trkpt>
      <trkpt lat="49.04812" lon="0.77963">
        <ele>171.25</ele>
        <time>2021-04-30T13:10:02Z</time>
      </trkpt>
      <trkpt lat="49.04813" lon="0.77945">
        <ele>171.25</ele>
        <time>2021-04-30T13:10:04Z</time>
      </trkpt>
      <trkpt lat="49.04813" lon="0.77936">
        <ele>171.25</ele>
        <time>2021-04-30T13:10:05Z</time>
      </trkpt>
      <trkpt lat="49.0481" lon="0.77876">
        <ele>171.25</ele>
        <time>2021-04-30T13:10:12Z</time>
      </trkpt>
      <trkpt lat="49.04811" lon="0.77867">
        <ele>171.25</ele>
        <time>2021-04-30T13:10:13Z</time>
      </trkpt>
      <trkpt lat="49.04811" lon="0.77851">
        <ele>171.25</ele>
        <time>2021-04-30T13:10:15Z</time>
      </trkpt>
      <trkpt lat="49.04811" lon="0.77843">
        <ele>171.25</ele>
        <time>2021-04-30T13:10:16Z</time>
      </trkpt>
      <trkpt lat="49.04811" lon="0.77817">
        <ele>171.25</ele>
        <time>2021-04-30T13:10:19Z</time>
      </trkpt>
      <trkpt lat="49.0481" lon="0.77808">
        <ele>171.25</ele>
        <time>2021-04-30T13:10:20Z</time>
      </trkpt>
      <trkpt lat="49.04811" lon="0.77799">
        <ele>171.25</ele>
        <time>2021-04-30T13:10:21Z</time>
      </trkpt>
      <trkpt lat="49.04814" lon="0.77715">
        <ele>171.25</ele>
        <time>2021-04-30T13:10:31Z</time>
      </trkpt>
      <trkpt lat="49.04821" lon="0.77626">
        <ele>169.81</ele>
        <time>2021-04-30T13:10:41Z</time>
      </trkpt>
      <trkpt lat="49.04824" lon="0.77568">
        <ele>169.81</ele>
        <time>2021-04-30T13:10:50Z</time>
      </trkpt>
      <trkpt lat="49.04826" lon="0.77505">
        <ele>171.73</ele>
        <time>2021-04-30T13:11:01Z</time>
      </trkpt>
      <trkpt lat="49.04827" lon="0.775">
        <ele>171.73</ele>
        <time>2021-04-30T13:11:02Z</time>
      </trkpt>
      <trkpt lat="49.04827" lon="0.77488">
        <ele>170.29</ele>
        <time>2021-04-30T13:11:05Z</time>
      </trkpt>
      <trkpt lat="49.0483" lon="0.77436">
        <ele>170.29</ele>
        <time>2021-04-30T13:11:17Z</time>
      </trkpt>
      <trkpt lat="49.04829" lon="0.77426">
        <ele>170.77</ele>
        <time>2021-04-30T13:11:30Z</time>
      </trkpt>
      <trkpt lat="49.04829" lon="0.77419">
        <ele>171.73</ele>
        <time>2021-04-30T13:11:37Z</time>
      </trkpt>
      <trkpt lat="49.0483" lon="0.77417">
        <ele>171.73</ele>
        <time>2021-04-30T13:11:38Z</time>
      </trkpt>
      <trkpt lat="49.04832" lon="0.77416">
        <ele>171.73</ele>
        <time>2021-04-30T13:11:39Z</time>
      </trkpt>
      <trkpt lat="49.04834" lon="0.77416">
        <ele>171.73</ele>
        <time>2021-04-30T13:11:40Z</time>
      </trkpt>
      <trkpt lat="49.04835" lon="0.77415">
        <ele>171.73</ele>
        <time>2021-04-30T13:11:41Z</time>
      </trkpt>
      <trkpt lat="49.04838" lon="0.77414">
        <ele>171.73</ele>
        <time>2021-04-30T13:11:42Z</time>
      </trkpt>
      <trkpt lat="49.04841" lon="0.77413">
        <ele>171.73</ele>
        <time>2021-04-30T13:11:43Z</time>
      </trkpt>
      <trkpt lat="49.04895" lon="0.77397">
        <ele>171.73</ele>
        <time>2021-04-30T13:11:56Z</time>
      </trkpt>
      <trkpt lat="49.04971" lon="0.7738">
        <ele>170.77</ele>
        <time>2021-04-30T13:12:11Z</time>
      </trkpt>
      <trkpt lat="49.04977" lon="0.77379">
        <ele>170.77</ele>
        <time>2021-04-30T13:12:12Z</time>
      </trkpt>
      <trkpt lat="49.05058" lon="0.77362">
        <ele>170.77</ele>
        <time>2021-04-30T13:12:25Z</time>
      </trkpt>
      <trkpt lat="49.05159" lon="0.77338">
        <ele>171.25</ele>
        <time>2021-04-30T13:12:39Z</time>
      </trkpt>
      <trkpt lat="49.05262" lon="0.77318">
        <ele>171.73</ele>
        <time>2021-04-30T13:12:54Z</time>
      </trkpt>
      <trkpt lat="49.05356" lon="0.773">
        <ele>170.29</ele>
        <time>2021-04-30T13:13:10Z</time>
      </trkpt>
      <trkpt lat="49.05472" lon="0.77278">
        <ele>170.29</ele>
        <time>2021-04-30T13:13:27Z</time>
      </trkpt>
      <trkpt lat="49.05546" lon="0.77265">
        <ele>169.81</ele>
        <time>2021-04-30T13:13:40Z</time>
      </trkpt>
      <trkpt lat="49.05645" lon="0.77245">
        <ele>168.37</ele>
        <time>2021-04-30T13:13:58Z</time>
      </trkpt>
      <trkpt lat="49.05682" lon="0.77238">
        <ele>167.89</ele>
        <time>2021-04-30T13:14:05Z</time>
      </trkpt>
      <trkpt lat="49.05687" lon="0.77236">
        <ele>167.89</ele>
        <time>2021-04-30T13:14:06Z</time>
      </trkpt>
      <trkpt lat="49.05761" lon="0.7722">
        <ele>164.04</ele>
        <time>2021-04-30T13:14:18Z</time>
      </trkpt>
      <trkpt lat="49.05866" lon="0.77199">
        <ele>161.16</ele>
        <time>2021-04-30T13:14:33Z</time>
      </trkpt>
      <trkpt lat="49.05969" lon="0.77179">
        <ele>159.24</ele>
        <time>2021-04-30T13:14:48Z</time>
      </trkpt>
      <trkpt lat="49.0607" lon="0.77156">
        <ele>157.79</ele>
        <time>2021-04-30T13:15:04Z</time>
      </trkpt>
      <trkpt lat="49.06172" lon="0.77137">
        <ele>156.83</ele>
        <time>2021-04-30T13:15:20Z</time>
      </trkpt>
      <trkpt lat="49.06266" lon="0.77119">
        <ele>156.83</ele>
        <time>2021-04-30T13:15:35Z</time>
      </trkpt>
      <trkpt lat="49.06343" lon="0.77103">
        <ele>158.75</ele>
        <time>2021-04-30T13:15:49Z</time>
      </trkpt>
      <trkpt lat="49.06348" lon="0.77103">
        <ele>158.75</ele>
        <time>2021-04-30T13:15:50Z</time>
      </trkpt>
      <trkpt lat="49.06353" lon="0.77102">
        <ele>157.79</ele>
        <time>2021-04-30T13:15:51Z</time>
      </trkpt>
      <trkpt lat="49.06357" lon="0.77101">
        <ele>157.79</ele>
        <time>2021-04-30T13:15:52Z</time>
      </trkpt>
      <trkpt lat="49.06434" lon="0.77087">
        <ele>157.79</ele>
        <time>2021-04-30T13:16:08Z</time>
      </trkpt>
      <trkpt lat="49.06507" lon="0.77074">
        <ele>156.35</ele>
        <time>2021-04-30T13:16:21Z</time>
      </trkpt>
      <trkpt lat="49.06598" lon="0.77056">
        <ele>157.79</ele>
        <time>2021-04-30T13:16:38Z</time>
      </trkpt>
      <trkpt lat="49.067" lon="0.77036">
        <ele>157.79</ele>
        <time>2021-04-30T13:16:56Z</time>
      </trkpt>
      <trkpt lat="49.06754" lon="0.7702">
        <ele>154.43</ele>
        <time>2021-04-30T13:17:07Z</time>
      </trkpt>
      <trkpt lat="49.06772" lon="0.77008">
        <ele>153.95</ele>
        <time>2021-04-30T13:17:10Z</time>
      </trkpt>
      <trkpt lat="49.06801" lon="0.76973">
        <ele>152.03</ele>
        <time>2021-04-30T13:17:15Z</time>
      </trkpt>
      <trkpt lat="49.06806" lon="0.76963">
        <ele>151.06</ele>
        <time>2021-04-30T13:17:16Z</time>
      </trkpt>
      <trkpt lat="49.0681" lon="0.76951">
        <ele>151.06</ele>
        <time>2021-04-30T13:17:17Z</time>
      </trkpt>
      <trkpt lat="49.06824" lon="0.76888">
        <ele>149.14</ele>
        <time>2021-04-30T13:17:22Z</time>
      </trkpt>
      <trkpt lat="49.06829" lon="0.76842">
        <ele>147.22</ele>
        <time>2021-04-30T13:17:27Z</time>
      </trkpt>
      <trkpt lat="49.06831" lon="0.76836">
        <ele>147.22</ele>
        <time>2021-04-30T13:17:28Z</time>
      </trkpt>
      <trkpt lat="49.06835" lon="0.76834">
        <ele>147.22</ele>
        <time>2021-04-30T13:17:29Z</time>
      </trkpt>
      <trkpt lat="49.0684" lon="0.76837">
        <ele>145.78</ele>
        <time>2021-04-30T13:17:30Z</time>
      </trkpt>
      <trkpt lat="49.06843" lon="0.76845">
        <ele>145.78</ele>
        <time>2021-04-30T13:17:31Z</time>
      </trkpt>
      <trkpt lat="49.06845" lon="0.76854">
        <ele>144.82</ele>
        <time>2021-04-30T13:17:32Z</time>
      </trkpt>
      <trkpt lat="49.06846" lon="0.76864">
        <ele>144.34</ele>
        <time>2021-04-30T13:17:33Z</time>
      </trkpt>
      <trkpt lat="49.06846" lon="0.76874">
        <ele>144.34</ele>
        <time>2021-04-30T13:17:34Z</time>
      </trkpt>
      <trkpt lat="49.06855" lon="0.76951">
        <ele>140.49</ele>
        <time>2021-04-30T13:17:41Z</time>
      </trkpt>
      <trkpt lat="49.06877" lon="0.77031">
        <ele>137.61</ele>
        <time>2021-04-30T13:17:48Z</time>
      </trkpt>
      <trkpt lat="49.06891" lon="0.77066">
        <ele>135.68</ele>
        <time>2021-04-30T13:17:51Z</time>
      </trkpt>
      <trkpt lat="49.06897" lon="0.77076">
        <ele>135.2</ele>
        <time>2021-04-30T13:17:52Z</time>
      </trkpt>
      <trkpt lat="49.06927" lon="0.77126">
        <ele>132.8</ele>
        <time>2021-04-30T13:17:57Z</time>
      </trkpt>
      <trkpt lat="49.06971" lon="0.77178">
        <ele>129.43</ele>
        <time>2021-04-30T13:18:03Z</time>
      </trkpt>
      <trkpt lat="49.07014" lon="0.77213">
        <ele>126.07</ele>
        <time>2021-04-30T13:18:08Z</time>
      </trkpt>
      <trkpt lat="49.07069" lon="0.77247">
        <ele>122.71</ele>
        <time>2021-04-30T13:18:14Z</time>
      </trkpt>
      <trkpt lat="49.07129" lon="0.77257">
        <ele>118.86</ele>
        <time>2021-04-30T13:18:20Z</time>
      </trkpt>
      <trkpt lat="49.07171" lon="0.77262">
        <ele>115.5</ele>
        <time>2021-04-30T13:18:24Z</time>
      </trkpt>
      <trkpt lat="49.07222" lon="0.77268">
        <ele>112.61</ele>
        <time>2021-04-30T13:18:29Z</time>
      </trkpt>
      <trkpt lat="49.0725" lon="0.77269">
        <ele>111.17</ele>
        <time>2021-04-30T13:18:32Z</time>
      </trkpt>
      <trkpt lat="49.07267" lon="0.77267">
        <ele>110.21</ele>
        <time>2021-04-30T13:18:34Z</time>
      </trkpt>
      <trkpt lat="49.07274" lon="0.77262">
        <ele>109.73</ele>
        <time>2021-04-30T13:18:35Z</time>
      </trkpt>
      <trkpt lat="49.07279" lon="0.77253">
        <ele>109.73</ele>
        <time>2021-04-30T13:18:36Z</time>
      </trkpt>
      <trkpt lat="49.07281" lon="0.77237">
        <ele>109.25</ele>
        <time>2021-04-30T13:18:37Z</time>
      </trkpt>
      <trkpt lat="49.07281" lon="0.77225">
        <ele>109.25</ele>
        <time>2021-04-30T13:18:38Z</time>
      </trkpt>
      <trkpt lat="49.07281" lon="0.77216">
        <ele>108.77</ele>
        <time>2021-04-30T13:18:39Z</time>
      </trkpt>
      <trkpt lat="49.07281" lon="0.77203">
        <ele>108.29</ele>
        <time>2021-04-30T13:18:40Z</time>
      </trkpt>
      <trkpt lat="49.0728" lon="0.7719">
        <ele>107.81</ele>
        <time>2021-04-30T13:18:41Z</time>
      </trkpt>
      <trkpt lat="49.07278" lon="0.77176">
        <ele>106.84</ele>
        <time>2021-04-30T13:18:42Z</time>
      </trkpt>
      <trkpt lat="49.07273" lon="0.77132">
        <ele>104.44</ele>
        <time>2021-04-30T13:18:45Z</time>
      </trkpt>
      <trkpt lat="49.07273" lon="0.77118">
        <ele>103.48</ele>
        <time>2021-04-30T13:18:46Z</time>
      </trkpt>
      <trkpt lat="49.07294" lon="0.76985">
        <ele>101.56</ele>
        <time>2021-04-30T13:18:56Z</time>
      </trkpt>
      <trkpt lat="49.07337" lon="0.76864">
        <ele>101.56</ele>
        <time>2021-04-30T13:19:09Z</time>
      </trkpt>
      <trkpt lat="49.07338" lon="0.76856">
        <ele>101.56</ele>
        <time>2021-04-30T13:19:10Z</time>
      </trkpt>
      <trkpt lat="49.0734" lon="0.76839">
        <ele>101.56</ele>
        <time>2021-04-30T13:19:12Z</time>
      </trkpt>
      <trkpt lat="49.0734" lon="0.7683">
        <ele>101.56</ele>
        <time>2021-04-30T13:19:13Z</time>
      </trkpt>
      <trkpt lat="49.07339" lon="0.76819">
        <ele>101.56</ele>
        <time>2021-04-30T13:19:14Z</time>
      </trkpt>
      <trkpt lat="49.07336" lon="0.76809">
        <ele>101.08</ele>
        <time>2021-04-30T13:19:15Z</time>
      </trkpt>
      <trkpt lat="49.07333" lon="0.76799">
        <ele>100.6</ele>
        <time>2021-04-30T13:19:16Z</time>
      </trkpt>
      <trkpt lat="49.07329" lon="0.7679">
        <ele>100.6</ele>
        <time>2021-04-30T13:19:17Z</time>
      </trkpt>
      <trkpt lat="49.07324" lon="0.76779">
        <ele>100.6</ele>
        <time>2021-04-30T13:19:18Z</time>
      </trkpt>
      <trkpt lat="49.07301" lon="0.76727">
        <ele>98.67</ele>
        <time>2021-04-30T13:19:23Z</time>
      </trkpt>
      <trkpt lat="49.07227" lon="0.76564">
        <ele>99.15</ele>
        <time>2021-04-30T13:19:39Z</time>
      </trkpt>
      <trkpt lat="49.07221" lon="0.76551">
        <ele>100.6</ele>
        <time>2021-04-30T13:19:41Z</time>
      </trkpt>
      <trkpt lat="49.07188" lon="0.76476">
        <ele>100.11</ele>
        <time>2021-04-30T13:19:51Z</time>
      </trkpt>
      <trkpt lat="49.07161" lon="0.76417">
        <ele>100.11</ele>
        <time>2021-04-30T13:20:01Z</time>
      </trkpt>
      <trkpt lat="49.07161" lon="0.76406">
        <ele>100.11</ele>
        <time>2021-04-30T13:20:03Z</time>
      </trkpt>
      <trkpt lat="49.07165" lon="0.76401">
        <ele>100.11</ele>
        <time>2021-04-30T13:20:04Z</time>
      </trkpt>
      <trkpt lat="49.07167" lon="0.76397">
        <ele>100.11</ele>
        <time>2021-04-30T13:20:05Z</time>
      </trkpt>
      <trkpt lat="49.07171" lon="0.76393">
        <ele>100.11</ele>
        <time>2021-04-30T13:20:06Z</time>
      </trkpt>
      <trkpt lat="49.07191" lon="0.76372">
        <ele>98.67</ele>
        <time>2021-04-30T13:20:11Z</time>
      </trkpt>
      <trkpt lat="49.07205" lon="0.76357">
        <ele>98.67</ele>
        <time>2021-04-30T13:20:14Z</time>
      </trkpt>
      <trkpt lat="49.07275" lon="0.76311">
        <ele>98.67</ele>
        <time>2021-04-30T13:20:30Z</time>
      </trkpt>
      <trkpt lat="49.07316" lon="0.76298">
        <ele>98.19</ele>
        <time>2021-04-30T13:20:42Z</time>
      </trkpt>
      <trkpt lat="49.07345" lon="0.7631">
        <ele>98.19</ele>
        <time>2021-04-30T13:20:50Z</time>
      </trkpt>
      <trkpt lat="49.0735" lon="0.7631">
        <ele>98.19</ele>
        <time>2021-04-30T13:20:51Z</time>
      </trkpt>
      <trkpt lat="49.07354" lon="0.7631">
        <ele>98.19</ele>
        <time>2021-04-30T13:20:52Z</time>
      </trkpt>
      <trkpt lat="49.07358" lon="0.76308">
        <ele>98.19</ele>
        <time>2021-04-30T13:20:53Z</time>
      </trkpt>
      <trkpt lat="49.07361" lon="0.76303">
        <ele>98.19</ele>
        <time>2021-04-30T13:20:54Z</time>
      </trkpt>
      <trkpt lat="49.07364" lon="0.76298">
        <ele>98.19</ele>
        <time>2021-04-30T13:20:55Z</time>
      </trkpt>
      <trkpt lat="49.07368" lon="0.76293">
        <ele>98.19</ele>
        <time>2021-04-30T13:20:56Z</time>
      </trkpt>
      <trkpt lat="49.0737" lon="0.76288">
        <ele>98.19</ele>
        <time>2021-04-30T13:20:57Z</time>
      </trkpt>
      <trkpt lat="49.07374" lon="0.76269">
        <ele>98.19</ele>
        <time>2021-04-30T13:21:00Z</time>
      </trkpt>
      <trkpt lat="49.07375" lon="0.76262">
        <ele>98.19</ele>
        <time>2021-04-30T13:21:01Z</time>
      </trkpt>
      <trkpt lat="49.07375" lon="0.76255">
        <ele>98.19</ele>
        <time>2021-04-30T13:21:02Z</time>
      </trkpt>
      <trkpt lat="49.07375" lon="0.76233">
        <ele>98.19</ele>
        <time>2021-04-30T13:21:05Z</time>
      </trkpt>
      <trkpt lat="49.07376" lon="0.76225">
        <ele>98.19</ele>
        <time>2021-04-30T13:21:06Z</time>
      </trkpt>
      <trkpt lat="49.07377" lon="0.76218">
        <ele>98.19</ele>
        <time>2021-04-30T13:21:07Z</time>
      </trkpt>
      <trkpt lat="49.07379" lon="0.76211">
        <ele>98.19</ele>
        <time>2021-04-30T13:21:08Z</time>
      </trkpt>
      <trkpt lat="49.07381" lon="0.76205">
        <ele>98.19</ele>
        <time>2021-04-30T13:21:09Z</time>
      </trkpt>
      <trkpt lat="49.07385" lon="0.76199">
        <ele>98.19</ele>
        <time>2021-04-30T13:21:10Z</time>
      </trkpt>
      <trkpt lat="49.0739" lon="0.76193">
        <ele>98.19</ele>
        <time>2021-04-30T13:21:11Z</time>
      </trkpt>
      <trkpt lat="49.07394" lon="0.76188">
        <ele>98.19</ele>
        <time>2021-04-30T13:21:12Z</time>
      </trkpt>
      <trkpt lat="49.07406" lon="0.76172">
        <ele>98.19</ele>
        <time>2021-04-30T13:21:15Z</time>
      </trkpt>
      <trkpt lat="49.07409" lon="0.76166">
        <ele>98.19</ele>
        <time>2021-04-30T13:21:16Z</time>
      </trkpt>
      <trkpt lat="49.07421" lon="0.76136">
        <ele>98.19</ele>
        <time>2021-04-30T13:21:25Z</time>
      </trkpt>
      <trkpt lat="49.07423" lon="0.76123">
        <ele>98.19</ele>
        <time>2021-04-30T13:21:35Z</time>
      </trkpt>
      <trkpt lat="49.07429" lon="0.76118">
        <ele>98.19</ele>
        <time>2021-04-30T13:21:47Z</time>
      </trkpt>
      <trkpt lat="49.07429" lon="0.76118">
        <ele>100.11</ele>
        <time>2021-04-30T13:21:50Z</time>
      </trkpt>
      <trkpt lat="49.07432" lon="0.76119">
        <ele>100.11</ele>
        <time>2021-04-30T13:21:53Z</time>
      </trkpt>
      <trkpt lat="49.07457" lon="0.76144">
        <ele>100.11</ele>
        <time>2021-04-30T13:22:04Z</time>
      </trkpt>
      <trkpt lat="49.07521" lon="0.76229">
        <ele>98.67</ele>
        <time>2021-04-30T13:22:19Z</time>
      </trkpt>
      <trkpt lat="49.07573" lon="0.76289">
        <ele>99.63</ele>
        <time>2021-04-30T13:22:32Z</time>
      </trkpt>
      <trkpt lat="49.07613" lon="0.7633">
        <ele>101.56</ele>
        <time>2021-04-30T13:22:46Z</time>
      </trkpt>
      <trkpt lat="49.07651" lon="0.76371">
        <ele>103.48</ele>
        <time>2021-04-30T13:23:02Z</time>
      </trkpt>
      <trkpt lat="49.0769" lon="0.76411">
        <ele>102.52</ele>
        <time>2021-04-30T13:23:13Z</time>
      </trkpt>
      <trkpt lat="49.07715" lon="0.76438">
        <ele>100.6</ele>
        <time>2021-04-30T13:23:18Z</time>
      </trkpt>
      <trkpt lat="49.07757" lon="0.76482">
        <ele>100.11</ele>
        <time>2021-04-30T13:23:28Z</time>
      </trkpt>
      <trkpt lat="49.0776" lon="0.76485">
        <ele>100.11</ele>
        <time>2021-04-30T13:23:29Z</time>
      </trkpt>
      <trkpt lat="49.07828" lon="0.7656">
        <ele>100.6</ele>
        <time>2021-04-30T13:23:48Z</time>
      </trkpt>
      <trkpt lat="49.07841" lon="0.76573">
        <ele>99.63</ele>
        <time>2021-04-30T13:23:51Z</time>
      </trkpt>
      <trkpt lat="49.07846" lon="0.76575">
        <ele>99.63</ele>
        <time>2021-04-30T13:23:52Z</time>
      </trkpt>
      <trkpt lat="49.07852" lon="0.76574">
        <ele>99.63</ele>
        <time>2021-04-30T13:23:53Z</time>
      </trkpt>
      <trkpt lat="49.07856" lon="0.76571">
        <ele>99.63</ele>
        <time>2021-04-30T13:23:54Z</time>
      </trkpt>
      <trkpt lat="49.07865" lon="0.76561">
        <ele>99.63</ele>
        <time>2021-04-30T13:23:56Z</time>
      </trkpt>
      <trkpt lat="49.07871" lon="0.76551">
        <ele>99.63</ele>
        <time>2021-04-30T13:23:57Z</time>
      </trkpt>
      <trkpt lat="49.0792" lon="0.76474">
        <ele>100.6</ele>
        <time>2021-04-30T13:24:08Z</time>
      </trkpt>
      <trkpt lat="49.07972" lon="0.76393">
        <ele>101.56</ele>
        <time>2021-04-30T13:24:20Z</time>
      </trkpt>
      <trkpt lat="49.07975" lon="0.76384">
        <ele>101.56</ele>
        <time>2021-04-30T13:24:21Z</time>
      </trkpt>
      <trkpt lat="49.07977" lon="0.76375">
        <ele>101.56</ele>
        <time>2021-04-30T13:24:22Z</time>
      </trkpt>
      <trkpt lat="49.07978" lon="0.76366">
        <ele>101.56</ele>
        <time>2021-04-30T13:24:23Z</time>
      </trkpt>
      <trkpt lat="49.07979" lon="0.76357">
        <ele>102.04</ele>
        <time>2021-04-30T13:24:24Z</time>
      </trkpt>
      <trkpt lat="49.07981" lon="0.76251">
        <ele>103.48</ele>
        <time>2021-04-30T13:24:38Z</time>
      </trkpt>
      <trkpt lat="49.07984" lon="0.76213">
        <ele>103.96</ele>
        <time>2021-04-30T13:24:45Z</time>
      </trkpt>
      <trkpt lat="49.07988" lon="0.7621">
        <ele>103.96</ele>
        <time>2021-04-30T13:24:46Z</time>
      </trkpt>
      <trkpt lat="49.07992" lon="0.76209">
        <ele>103.96</ele>
        <time>2021-04-30T13:24:47Z</time>
      </trkpt>
      <trkpt lat="49.07995" lon="0.7621">
        <ele>103.96</ele>
        <time>2021-04-30T13:24:48Z</time>
      </trkpt>
      <trkpt lat="49.07999" lon="0.76213">
        <ele>103.96</ele>
        <time>2021-04-30T13:24:49Z</time>
      </trkpt>
      <trkpt lat="49.08002" lon="0.76216">
        <ele>103.96</ele>
        <time>2021-04-30T13:24:50Z</time>
      </trkpt>
      <trkpt lat="49.08005" lon="0.76221">
        <ele>104.44</ele>
        <time>2021-04-30T13:24:51Z</time>
      </trkpt>
      <trkpt lat="49.08007" lon="0.76225">
        <ele>104.44</ele>
        <time>2021-04-30T13:24:52Z</time>
      </trkpt>
      <trkpt lat="49.08009" lon="0.76231">
        <ele>104.44</ele>
        <time>2021-04-30T13:24:53Z</time>
      </trkpt>
      <trkpt lat="49.0801" lon="0.76236">
        <ele>104.92</ele>
        <time>2021-04-30T13:24:54Z</time>
      </trkpt>
      <trkpt lat="49.08011" lon="0.76242">
        <ele>104.92</ele>
        <time>2021-04-30T13:24:55Z</time>
      </trkpt>
      <trkpt lat="49.08021" lon="0.76279">
        <ele>106.36</ele>
        <time>2021-04-30T13:25:02Z</time>
      </trkpt>
      <trkpt lat="49.08024" lon="0.76284">
        <ele>106.36</ele>
        <time>2021-04-30T13:25:03Z</time>
      </trkpt>
      <trkpt lat="49.08027" lon="0.76287">
        <ele>106.84</ele>
        <time>2021-04-30T13:25:04Z</time>
      </trkpt>
      <trkpt lat="49.08031" lon="0.76291">
        <ele>106.84</ele>
        <time>2021-04-30T13:25:05Z</time>
      </trkpt>
      <trkpt lat="49.08034" lon="0.76294">
        <ele>106.84</ele>
        <time>2021-04-30T13:25:06Z</time>
      </trkpt>
      <trkpt lat="49.08039" lon="0.76296">
        <ele>106.84</ele>
        <time>2021-04-30T13:25:07Z</time>
      </trkpt>
      <trkpt lat="49.08043" lon="0.76298">
        <ele>106.84</ele>
        <time>2021-04-30T13:25:08Z</time>
      </trkpt>
      <trkpt lat="49.08048" lon="0.76299">
        <ele>106.84</ele>
        <time>2021-04-30T13:25:09Z</time>
      </trkpt>
      <trkpt lat="49.0807" lon="0.76309">
        <ele>106.84</ele>
        <time>2021-04-30T13:25:14Z</time>
      </trkpt>
      <trkpt lat="49.08075" lon="0.76308">
        <ele>106.84</ele>
        <time>2021-04-30T13:25:15Z</time>
      </trkpt>
      <trkpt lat="49.0808" lon="0.76306">
        <ele>105.4</ele>
        <time>2021-04-30T13:25:16Z</time>
      </trkpt>
      <trkpt lat="49.08084" lon="0.76303">
        <ele>105.4</ele>
        <time>2021-04-30T13:25:17Z</time>
      </trkpt>
      <trkpt lat="49.08088" lon="0.76299">
        <ele>104.92</ele>
        <time>2021-04-30T13:25:18Z</time>
      </trkpt>
      <trkpt lat="49.08091" lon="0.76293">
        <ele>104.92</ele>
        <time>2021-04-30T13:25:19Z</time>
      </trkpt>
      <trkpt lat="49.08095" lon="0.76287">
        <ele>104.92</ele>
        <time>2021-04-30T13:25:20Z</time>
      </trkpt>
      <trkpt lat="49.08123" lon="0.76235">
        <ele>101.56</ele>
        <time>2021-04-30T13:25:27Z</time>
      </trkpt>
      <trkpt lat="49.08147" lon="0.76193">
        <ele>99.63</ele>
        <time>2021-04-30T13:25:33Z</time>
      </trkpt>
      <trkpt lat="49.0815" lon="0.76192">
        <ele>99.15</ele>
        <time>2021-04-30T13:25:34Z</time>
      </trkpt>
      <trkpt lat="49.08154" lon="0.76192">
        <ele>98.67</ele>
        <time>2021-04-30T13:25:35Z</time>
      </trkpt>
      <trkpt lat="49.08158" lon="0.76193">
        <ele>98.19</ele>
        <time>2021-04-30T13:25:36Z</time>
      </trkpt>
      <trkpt lat="49.08161" lon="0.76195">
        <ele>98.19</ele>
        <time>2021-04-30T13:25:37Z</time>
      </trkpt>
      <trkpt lat="49.08164" lon="0.76197">
        <ele>98.19</ele>
        <time>2021-04-30T13:25:38Z</time>
      </trkpt>
      <trkpt lat="49.08185" lon="0.76194">
        <ele>98.19</ele>
        <time>2021-04-30T13:25:47Z</time>
      </trkpt>
      <trkpt lat="49.08214" lon="0.76149">
        <ele>99.15</ele>
        <time>2021-04-30T13:25:57Z</time>
      </trkpt>
      <trkpt lat="49.08266" lon="0.76072">
        <ele>97.71</ele>
        <time>2021-04-30T13:26:09Z</time>
      </trkpt>
      <trkpt lat="49.08344" lon="0.75951">
        <ele>96.27</ele>
        <time>2021-04-30T13:26:23Z</time>
      </trkpt>
      <trkpt lat="49.08436" lon="0.75812">
        <ele>95.79</ele>
        <time>2021-04-30T13:26:40Z</time>
      </trkpt>
      <trkpt lat="49.08441" lon="0.75807">
        <ele>95.79</ele>
        <time>2021-04-30T13:26:41Z</time>
      </trkpt>
      <trkpt lat="49.08451" lon="0.75809">
        <ele>95.31</ele>
        <time>2021-04-30T13:26:43Z</time>
      </trkpt>
      <trkpt lat="49.08471" lon="0.7584">
        <ele>94.35</ele>
        <time>2021-04-30T13:26:47Z</time>
      </trkpt>
      <trkpt lat="49.08518" lon="0.75936">
        <ele>93.39</ele>
        <time>2021-04-30T13:26:57Z</time>
      </trkpt>
      <trkpt lat="49.0852" lon="0.75948">
        <ele>93.39</ele>
        <time>2021-04-30T13:26:58Z</time>
      </trkpt>
      <trkpt lat="49.08521" lon="0.7596">
        <ele>93.39</ele>
        <time>2021-04-30T13:26:59Z</time>
      </trkpt>
      <trkpt lat="49.0852" lon="0.75972">
        <ele>92.9</ele>
        <time>2021-04-30T13:27:00Z</time>
      </trkpt>
      <trkpt lat="49.08519" lon="0.75984">
        <ele>92.9</ele>
        <time>2021-04-30T13:27:01Z</time>
      </trkpt>
      <trkpt lat="49.08516" lon="0.75999">
        <ele>92.9</ele>
        <time>2021-04-30T13:27:02Z</time>
      </trkpt>
      <trkpt lat="49.08514" lon="0.76007">
        <ele>92.9</ele>
        <time>2021-04-30T13:27:03Z</time>
      </trkpt>
      <trkpt lat="49.08511" lon="0.76017">
        <ele>92.9</ele>
        <time>2021-04-30T13:27:04Z</time>
      </trkpt>
      <trkpt lat="49.08494" lon="0.76091">
        <ele>95.79</ele>
        <time>2021-04-30T13:27:14Z</time>
      </trkpt>
      <trkpt lat="49.0848" lon="0.76134">
        <ele>96.27</ele>
        <time>2021-04-30T13:27:26Z</time>
      </trkpt>
      <trkpt lat="49.08467" lon="0.76105">
        <ele>96.27</ele>
        <time>2021-04-30T13:31:32Z</time>
      </trkpt>
      <trkpt lat="49.08467" lon="0.76113">
        <ele>93.87</ele>
        <time>2021-04-30T13:31:43Z</time>
      </trkpt>
      <trkpt lat="49.08465" lon="0.76115">
        <ele>90.98</ele>
        <time>2021-04-30T13:32:03Z</time>
      </trkpt>
    </trkseg>
  </trk>
</gpx>